﻿<?xml version="1.0" encoding="UTF-8" standalone="no" ?>
<gpx xmlns="http://www.topografix.com/GPX/1/1" creator="CompeGPS" version="1.1" xmlns:xsi="http://www.w3.org/2001/XMLSchema-instance" xsi:schemaLocation="http://www.topografix.com/GPX/1/1 http://www.topografix.com/GPX/1/1/gpx.xsd http://www.garmin.com/xmlschemas/GpxExtensions/v3 http://www.garmin.com/xmlschemas/GpxExtensionsv3.xsd http://www.garmin.com/xmlschemas/TrackPointExtension/v1 http://www.garmin.com/xmlschemas/TrackPointExtensionv1.xsd" xmlns:gpxtpx="http://www.garmin.com/xmlschemas/TrackPointExtension/v1">
  <metadata>
    <link href="http://www.compegps.com">
      <text>CompeGPS TEAM, SL</text>
    </link>
    <time>2013-04-02T14:04:54Z</time>
    <bounds maxlat="42.985651" maxlon="0.226214" minlat="42.958591" minlon="0.197676"/>
  </metadata>
<wpt lat="42.984410" lon="0.226167">
  <ele>850</ele>
  <name>Ste-Marie de Campan</name>
</wpt>
<wpt lat="42.978453" lon="0.224959">
  <ele>970</ele>
  <name>Croisee de chemin</name>
</wpt>
<wpt lat="42.962599" lon="0.219940">
  <ele>1450</ele>
  <name>Courtaou d'Empieye</name>
</wpt>
<wpt lat="42.960195" lon="0.205744">
  <ele>1746</ele>
  <name>Pla de la Serre</name>
</wpt>
<wpt lat="42.958756" lon="0.197696">
  <ele>1889</ele>
  <name>Soum de Hailla</name>
</wpt>
<wpt lat="42.978212" lon="0.213647">
  <ele>1235</ele>
  <name>Les Cabanettes</name>
</wpt>
<wpt lat="42.981130" lon="0.221892">
  <ele>920</ele>
  <name>Ruisseau d_Escaret</name>
</wpt>
  <trk>
    <name>soum de hailla</name>
    <trkseg>
      <trkpt lat="42.984410" lon="0.226167">
        <ele>855.7</ele>
        <time>2013-03-31T08:19:08Z</time>
        <name>Ste-Marie de Campan</name>
      </trkpt>
      <trkpt lat="42.984423" lon="0.226166">
        <ele>858.6</ele>
        <time>2013-03-31T08:20:56Z</time>
      </trkpt>
      <trkpt lat="42.984508" lon="0.226124">
        <ele>859.6</ele>
        <time>2013-03-31T08:21:09Z</time>
      </trkpt>
      <trkpt lat="42.984528" lon="0.226014">
        <ele>861.5</ele>
        <time>2013-03-31T08:21:22Z</time>
      </trkpt>
      <trkpt lat="42.984491" lon="0.225898">
        <ele>864.4</ele>
        <time>2013-03-31T08:21:37Z</time>
      </trkpt>
      <trkpt lat="42.984455" lon="0.225763">
        <ele>867.2</ele>
        <time>2013-03-31T08:21:56Z</time>
      </trkpt>
      <trkpt lat="42.984494" lon="0.225664">
        <ele>869.7</ele>
        <time>2013-03-31T08:23:29Z</time>
      </trkpt>
      <trkpt lat="42.984545" lon="0.225537">
        <ele>870.6</ele>
        <time>2013-03-31T08:23:39Z</time>
      </trkpt>
      <trkpt lat="42.984599" lon="0.225417">
        <ele>873.0</ele>
        <time>2013-03-31T08:23:51Z</time>
      </trkpt>
      <trkpt lat="42.984663" lon="0.225338">
        <ele>875.4</ele>
        <time>2013-03-31T08:24:03Z</time>
      </trkpt>
      <trkpt lat="42.984736" lon="0.225292">
        <ele>876.9</ele>
        <time>2013-03-31T08:24:16Z</time>
      </trkpt>
      <trkpt lat="42.984850" lon="0.225217">
        <ele>879.7</ele>
        <time>2013-03-31T08:24:43Z</time>
      </trkpt>
      <trkpt lat="42.984961" lon="0.225091">
        <ele>883.6</ele>
        <time>2013-03-31T08:24:57Z</time>
      </trkpt>
      <trkpt lat="42.985100" lon="0.224967">
        <ele>887.4</ele>
        <time>2013-03-31T08:25:16Z</time>
      </trkpt>
      <trkpt lat="42.985210" lon="0.224868">
        <ele>890.3</ele>
        <time>2013-03-31T08:25:34Z</time>
      </trkpt>
      <trkpt lat="42.985345" lon="0.224785">
        <ele>894.2</ele>
        <time>2013-03-31T08:25:55Z</time>
      </trkpt>
      <trkpt lat="42.985474" lon="0.224690">
        <ele>897.0</ele>
        <time>2013-03-31T08:26:12Z</time>
      </trkpt>
      <trkpt lat="42.985535" lon="0.224582">
        <ele>899.5</ele>
        <time>2013-03-31T08:26:28Z</time>
      </trkpt>
      <trkpt lat="42.985588" lon="0.224396">
        <ele>902.8</ele>
        <time>2013-03-31T08:26:46Z</time>
      </trkpt>
      <trkpt lat="42.985527" lon="0.224255">
        <ele>907.1</ele>
        <time>2013-03-31T08:27:08Z</time>
      </trkpt>
      <trkpt lat="42.985464" lon="0.224135">
        <ele>912.0</ele>
        <time>2013-03-31T08:27:35Z</time>
      </trkpt>
      <trkpt lat="42.985360" lon="0.224020">
        <ele>914.3</ele>
        <time>2013-03-31T08:27:50Z</time>
      </trkpt>
      <trkpt lat="42.985235" lon="0.224030">
        <ele>917.2</ele>
        <time>2013-03-31T08:28:08Z</time>
      </trkpt>
      <trkpt lat="42.985064" lon="0.224080">
        <ele>921.6</ele>
        <time>2013-03-31T08:28:31Z</time>
      </trkpt>
      <trkpt lat="42.984877" lon="0.224089">
        <ele>924.0</ele>
        <time>2013-03-31T08:28:53Z</time>
      </trkpt>
      <trkpt lat="42.984699" lon="0.224081">
        <ele>925.4</ele>
        <time>2013-03-31T08:29:12Z</time>
      </trkpt>
      <trkpt lat="42.984505" lon="0.224095">
        <ele>925.9</ele>
        <time>2013-03-31T08:29:33Z</time>
      </trkpt>
      <trkpt lat="42.984350" lon="0.224113">
        <ele>926.4</ele>
        <time>2013-03-31T08:29:49Z</time>
      </trkpt>
      <trkpt lat="42.984178" lon="0.224191">
        <ele>928.8</ele>
        <time>2013-03-31T08:30:07Z</time>
      </trkpt>
      <trkpt lat="42.983983" lon="0.224248">
        <ele>931.2</ele>
        <time>2013-03-31T08:30:31Z</time>
      </trkpt>
      <trkpt lat="42.983832" lon="0.224201">
        <ele>933.6</ele>
        <time>2013-03-31T08:30:50Z</time>
      </trkpt>
      <trkpt lat="42.983684" lon="0.224190">
        <ele>934.5</ele>
        <time>2013-03-31T08:32:00Z</time>
      </trkpt>
      <trkpt lat="42.983599" lon="0.224207">
        <ele>934.1</ele>
        <time>2013-03-31T08:32:12Z</time>
      </trkpt>
      <trkpt lat="42.983503" lon="0.224219">
        <ele>934.5</ele>
        <time>2013-03-31T08:32:22Z</time>
      </trkpt>
      <trkpt lat="42.983429" lon="0.224223">
        <ele>935.0</ele>
        <time>2013-03-31T08:32:33Z</time>
      </trkpt>
      <trkpt lat="42.983325" lon="0.224218">
        <ele>933.6</ele>
        <time>2013-03-31T08:32:43Z</time>
      </trkpt>
      <trkpt lat="42.983199" lon="0.224259">
        <ele>933.1</ele>
        <time>2013-03-31T08:32:53Z</time>
      </trkpt>
      <trkpt lat="42.983123" lon="0.224270">
        <ele>935.0</ele>
        <time>2013-03-31T08:33:03Z</time>
      </trkpt>
      <trkpt lat="42.983008" lon="0.224273">
        <ele>936.0</ele>
        <time>2013-03-31T08:33:12Z</time>
      </trkpt>
      <trkpt lat="42.982906" lon="0.224291">
        <ele>936.0</ele>
        <time>2013-03-31T08:33:21Z</time>
      </trkpt>
      <trkpt lat="42.982788" lon="0.224314">
        <ele>936.5</ele>
        <time>2013-03-31T08:33:31Z</time>
      </trkpt>
      <trkpt lat="42.982687" lon="0.224331">
        <ele>937.4</ele>
        <time>2013-03-31T08:33:40Z</time>
      </trkpt>
      <trkpt lat="42.982584" lon="0.224359">
        <ele>938.4</ele>
        <time>2013-03-31T08:33:50Z</time>
      </trkpt>
      <trkpt lat="42.982451" lon="0.224389">
        <ele>938.4</ele>
        <time>2013-03-31T08:34:05Z</time>
      </trkpt>
      <trkpt lat="42.982343" lon="0.224420">
        <ele>940.3</ele>
        <time>2013-03-31T08:34:19Z</time>
      </trkpt>
      <trkpt lat="42.982221" lon="0.224448">
        <ele>941.3</ele>
        <time>2013-03-31T08:34:33Z</time>
      </trkpt>
      <trkpt lat="42.982093" lon="0.224466">
        <ele>942.7</ele>
        <time>2013-03-31T08:34:47Z</time>
      </trkpt>
      <trkpt lat="42.981960" lon="0.224482">
        <ele>943.7</ele>
        <time>2013-03-31T08:35:00Z</time>
      </trkpt>
      <trkpt lat="42.981823" lon="0.224497">
        <ele>945.1</ele>
        <time>2013-03-31T08:35:15Z</time>
      </trkpt>
      <trkpt lat="42.981660" lon="0.224521">
        <ele>945.6</ele>
        <time>2013-03-31T08:35:31Z</time>
      </trkpt>
      <trkpt lat="42.981554" lon="0.224529">
        <ele>946.6</ele>
        <time>2013-03-31T08:35:42Z</time>
      </trkpt>
      <trkpt lat="42.981401" lon="0.224520">
        <ele>947.5</ele>
        <time>2013-03-31T08:35:56Z</time>
      </trkpt>
      <trkpt lat="42.981249" lon="0.224536">
        <ele>949.0</ele>
        <time>2013-03-31T08:36:13Z</time>
      </trkpt>
      <trkpt lat="42.981076" lon="0.224563">
        <ele>951.4</ele>
        <time>2013-03-31T08:36:32Z</time>
      </trkpt>
      <trkpt lat="42.980886" lon="0.224600">
        <ele>953.3</ele>
        <time>2013-03-31T08:36:48Z</time>
      </trkpt>
      <trkpt lat="42.980758" lon="0.224613">
        <ele>953.8</ele>
        <time>2013-03-31T08:37:00Z</time>
      </trkpt>
      <trkpt lat="42.980602" lon="0.224634">
        <ele>954.2</ele>
        <time>2013-03-31T08:37:17Z</time>
      </trkpt>
      <trkpt lat="42.980433" lon="0.224677">
        <ele>955.2</ele>
        <time>2013-03-31T08:37:34Z</time>
      </trkpt>
      <trkpt lat="42.980303" lon="0.224717">
        <ele>954.7</ele>
        <time>2013-03-31T08:37:48Z</time>
      </trkpt>
      <trkpt lat="42.980166" lon="0.224741">
        <ele>956.2</ele>
        <time>2013-03-31T08:38:00Z</time>
      </trkpt>
      <trkpt lat="42.980034" lon="0.224769">
        <ele>956.7</ele>
        <time>2013-03-31T08:38:12Z</time>
      </trkpt>
      <trkpt lat="42.979917" lon="0.224808">
        <ele>957.1</ele>
        <time>2013-03-31T08:38:22Z</time>
      </trkpt>
      <trkpt lat="42.979757" lon="0.224777">
        <ele>957.1</ele>
        <time>2013-03-31T08:38:35Z</time>
      </trkpt>
      <trkpt lat="42.979594" lon="0.224789">
        <ele>958.1</ele>
        <time>2013-03-31T08:38:49Z</time>
      </trkpt>
      <trkpt lat="42.979428" lon="0.224814">
        <ele>957.6</ele>
        <time>2013-03-31T08:39:07Z</time>
      </trkpt>
      <trkpt lat="42.979306" lon="0.224873">
        <ele>959.5</ele>
        <time>2013-03-31T08:39:21Z</time>
      </trkpt>
      <trkpt lat="42.979180" lon="0.224899">
        <ele>960.0</ele>
        <time>2013-03-31T08:39:30Z</time>
      </trkpt>
      <trkpt lat="42.979043" lon="0.224897">
        <ele>960.5</ele>
        <time>2013-03-31T08:39:39Z</time>
      </trkpt>
      <trkpt lat="42.978890" lon="0.224937">
        <ele>961.9</ele>
        <time>2013-03-31T08:39:55Z</time>
      </trkpt>
      <trkpt lat="42.978715" lon="0.224993">
        <ele>963.4</ele>
        <time>2013-03-31T08:40:13Z</time>
      </trkpt>
      <trkpt lat="42.978562" lon="0.224990">
        <ele>966.3</ele>
        <time>2013-03-31T08:40:30Z</time>
      </trkpt>
      <trkpt lat="42.978453" lon="0.224959">
        <ele>971.1</ele>
        <time>2013-03-31T08:40:40Z</time>
        <name>Croisee de chemin</name>
      </trkpt>
      <trkpt lat="42.978397" lon="0.224953">
        <ele>968.7</ele>
        <time>2013-03-31T08:40:56Z</time>
      </trkpt>
      <trkpt lat="42.978271" lon="0.224839">
        <ele>970.6</ele>
        <time>2013-03-31T08:41:13Z</time>
      </trkpt>
      <trkpt lat="42.978195" lon="0.224700">
        <ele>971.5</ele>
        <time>2013-03-31T08:41:28Z</time>
      </trkpt>
      <trkpt lat="42.978107" lon="0.224578">
        <ele>974.0</ele>
        <time>2013-03-31T08:41:49Z</time>
      </trkpt>
      <trkpt lat="42.977947" lon="0.224528">
        <ele>976.8</ele>
        <time>2013-03-31T08:42:11Z</time>
      </trkpt>
      <trkpt lat="42.977809" lon="0.224464">
        <ele>980.2</ele>
        <time>2013-03-31T08:42:30Z</time>
      </trkpt>
      <trkpt lat="42.977669" lon="0.224443">
        <ele>984.5</ele>
        <time>2013-03-31T08:42:52Z</time>
      </trkpt>
      <trkpt lat="42.977518" lon="0.224410">
        <ele>986.9</ele>
        <time>2013-03-31T08:43:09Z</time>
      </trkpt>
      <trkpt lat="42.977439" lon="0.224348">
        <ele>989.8</ele>
        <time>2013-03-31T08:43:27Z</time>
      </trkpt>
      <trkpt lat="42.977349" lon="0.224300">
        <ele>993.2</ele>
        <time>2013-03-31T08:43:42Z</time>
      </trkpt>
      <trkpt lat="42.977211" lon="0.224181">
        <ele>996.5</ele>
        <time>2013-03-31T08:44:00Z</time>
      </trkpt>
      <trkpt lat="42.977148" lon="0.224011">
        <ele>999.9</ele>
        <time>2013-03-31T08:44:17Z</time>
      </trkpt>
      <trkpt lat="42.977049" lon="0.223972">
        <ele>1003.3</ele>
        <time>2013-03-31T08:44:35Z</time>
      </trkpt>
      <trkpt lat="42.976932" lon="0.223921">
        <ele>1005.7</ele>
        <time>2013-03-31T08:44:50Z</time>
      </trkpt>
      <trkpt lat="42.976845" lon="0.223869">
        <ele>1010.0</ele>
        <time>2013-03-31T08:45:07Z</time>
      </trkpt>
      <trkpt lat="42.976728" lon="0.223871">
        <ele>1013.8</ele>
        <time>2013-03-31T08:45:30Z</time>
      </trkpt>
      <trkpt lat="42.976619" lon="0.223817">
        <ele>1018.2</ele>
        <time>2013-03-31T08:45:49Z</time>
      </trkpt>
      <trkpt lat="42.976613" lon="0.223814">
        <ele>1018.7</ele>
        <time>2013-03-31T08:49:09Z</time>
      </trkpt>
      <trkpt lat="42.976582" lon="0.223799">
        <ele>1022.5</ele>
        <time>2013-03-31T08:51:06Z</time>
      </trkpt>
      <trkpt lat="42.976484" lon="0.223766">
        <ele>1025.9</ele>
        <time>2013-03-31T08:51:24Z</time>
      </trkpt>
      <trkpt lat="42.976383" lon="0.223727">
        <ele>1029.7</ele>
        <time>2013-03-31T08:51:41Z</time>
      </trkpt>
      <trkpt lat="42.976291" lon="0.223668">
        <ele>1032.1</ele>
        <time>2013-03-31T08:51:55Z</time>
      </trkpt>
      <trkpt lat="42.976194" lon="0.223616">
        <ele>1036.0</ele>
        <time>2013-03-31T08:52:12Z</time>
      </trkpt>
      <trkpt lat="42.976078" lon="0.223586">
        <ele>1039.8</ele>
        <time>2013-03-31T08:52:30Z</time>
      </trkpt>
      <trkpt lat="42.975979" lon="0.223524">
        <ele>1043.2</ele>
        <time>2013-03-31T08:52:47Z</time>
      </trkpt>
      <trkpt lat="42.975866" lon="0.223492">
        <ele>1047.5</ele>
        <time>2013-03-31T08:53:04Z</time>
      </trkpt>
      <trkpt lat="42.975767" lon="0.223492">
        <ele>1050.9</ele>
        <time>2013-03-31T08:53:18Z</time>
      </trkpt>
      <trkpt lat="42.975658" lon="0.223478">
        <ele>1054.7</ele>
        <time>2013-03-31T08:53:36Z</time>
      </trkpt>
      <trkpt lat="42.975559" lon="0.223483">
        <ele>1058.6</ele>
        <time>2013-03-31T08:53:50Z</time>
      </trkpt>
      <trkpt lat="42.975469" lon="0.223500">
        <ele>1061.9</ele>
        <time>2013-03-31T08:54:05Z</time>
      </trkpt>
      <trkpt lat="42.975370" lon="0.223495">
        <ele>1065.8</ele>
        <time>2013-03-31T08:54:24Z</time>
      </trkpt>
      <trkpt lat="42.975261" lon="0.223501">
        <ele>1069.1</ele>
        <time>2013-03-31T08:54:42Z</time>
      </trkpt>
      <trkpt lat="42.975162" lon="0.223520">
        <ele>1073.0</ele>
        <time>2013-03-31T08:54:59Z</time>
      </trkpt>
      <trkpt lat="42.975057" lon="0.223509">
        <ele>1076.3</ele>
        <time>2013-03-31T08:55:14Z</time>
      </trkpt>
      <trkpt lat="42.974954" lon="0.223504">
        <ele>1079.7</ele>
        <time>2013-03-31T08:55:27Z</time>
      </trkpt>
      <trkpt lat="42.974851" lon="0.223527">
        <ele>1082.6</ele>
        <time>2013-03-31T08:55:42Z</time>
      </trkpt>
      <trkpt lat="42.974773" lon="0.223507">
        <ele>1085.0</ele>
        <time>2013-03-31T08:55:56Z</time>
      </trkpt>
      <trkpt lat="42.974637" lon="0.223522">
        <ele>1088.8</ele>
        <time>2013-03-31T08:56:13Z</time>
      </trkpt>
      <trkpt lat="42.974558" lon="0.223531">
        <ele>1091.7</ele>
        <time>2013-03-31T08:56:30Z</time>
      </trkpt>
      <trkpt lat="42.974465" lon="0.223537">
        <ele>1095.1</ele>
        <time>2013-03-31T08:56:45Z</time>
      </trkpt>
      <trkpt lat="42.974365" lon="0.223547">
        <ele>1098.0</ele>
        <time>2013-03-31T08:57:01Z</time>
      </trkpt>
      <trkpt lat="42.974289" lon="0.223560">
        <ele>1101.3</ele>
        <time>2013-03-31T08:57:13Z</time>
      </trkpt>
      <trkpt lat="42.974194" lon="0.223548">
        <ele>1104.7</ele>
        <time>2013-03-31T08:57:29Z</time>
      </trkpt>
      <trkpt lat="42.974084" lon="0.223530">
        <ele>1108.5</ele>
        <time>2013-03-31T08:57:47Z</time>
      </trkpt>
      <trkpt lat="42.973980" lon="0.223494">
        <ele>1111.9</ele>
        <time>2013-03-31T08:58:06Z</time>
      </trkpt>
      <trkpt lat="42.973844" lon="0.223448">
        <ele>1115.3</ele>
        <time>2013-03-31T08:58:38Z</time>
      </trkpt>
      <trkpt lat="42.973755" lon="0.223395">
        <ele>1115.3</ele>
        <time>2013-03-31T08:58:53Z</time>
      </trkpt>
      <trkpt lat="42.973648" lon="0.223364">
        <ele>1120.6</ele>
        <time>2013-03-31T08:59:08Z</time>
      </trkpt>
      <trkpt lat="42.973540" lon="0.223335">
        <ele>1123.4</ele>
        <time>2013-03-31T08:59:24Z</time>
      </trkpt>
      <trkpt lat="42.973443" lon="0.223306">
        <ele>1126.3</ele>
        <time>2013-03-31T08:59:39Z</time>
      </trkpt>
      <trkpt lat="42.973334" lon="0.223290">
        <ele>1129.7</ele>
        <time>2013-03-31T08:59:55Z</time>
      </trkpt>
      <trkpt lat="42.973232" lon="0.223234">
        <ele>1131.6</ele>
        <time>2013-03-31T09:00:09Z</time>
      </trkpt>
      <trkpt lat="42.973110" lon="0.223203">
        <ele>1135.0</ele>
        <time>2013-03-31T09:00:26Z</time>
      </trkpt>
      <trkpt lat="42.973016" lon="0.223167">
        <ele>1137.9</ele>
        <time>2013-03-31T09:00:39Z</time>
      </trkpt>
      <trkpt lat="42.972907" lon="0.223133">
        <ele>1141.2</ele>
        <time>2013-03-31T09:00:53Z</time>
      </trkpt>
      <trkpt lat="42.972812" lon="0.223104">
        <ele>1144.1</ele>
        <time>2013-03-31T09:01:05Z</time>
      </trkpt>
      <trkpt lat="42.972723" lon="0.223086">
        <ele>1147.5</ele>
        <time>2013-03-31T09:01:21Z</time>
      </trkpt>
      <trkpt lat="42.972609" lon="0.223044">
        <ele>1151.3</ele>
        <time>2013-03-31T09:01:39Z</time>
      </trkpt>
      <trkpt lat="42.972512" lon="0.223018">
        <ele>1154.7</ele>
        <time>2013-03-31T09:01:54Z</time>
      </trkpt>
      <trkpt lat="42.972419" lon="0.222985">
        <ele>1158.5</ele>
        <time>2013-03-31T09:02:09Z</time>
      </trkpt>
      <trkpt lat="42.972329" lon="0.222958">
        <ele>1161.9</ele>
        <time>2013-03-31T09:02:28Z</time>
      </trkpt>
      <trkpt lat="42.972220" lon="0.222950">
        <ele>1166.2</ele>
        <time>2013-03-31T09:02:46Z</time>
      </trkpt>
      <trkpt lat="42.972124" lon="0.222970">
        <ele>1168.6</ele>
        <time>2013-03-31T09:03:04Z</time>
      </trkpt>
      <trkpt lat="42.972086" lon="0.222977">
        <ele>1170.5</ele>
        <time>2013-03-31T09:08:07Z</time>
      </trkpt>
      <trkpt lat="42.972128" lon="0.223094">
        <ele>1173.9</ele>
        <time>2013-03-31T09:08:47Z</time>
      </trkpt>
      <trkpt lat="42.972138" lon="0.223221">
        <ele>1176.3</ele>
        <time>2013-03-31T09:09:00Z</time>
      </trkpt>
      <trkpt lat="42.972131" lon="0.223367">
        <ele>1179.2</ele>
        <time>2013-03-31T09:09:16Z</time>
      </trkpt>
      <trkpt lat="42.972110" lon="0.223482">
        <ele>1182.6</ele>
        <time>2013-03-31T09:09:37Z</time>
      </trkpt>
      <trkpt lat="42.972042" lon="0.223590">
        <ele>1187.4</ele>
        <time>2013-03-31T09:10:01Z</time>
      </trkpt>
      <trkpt lat="42.971932" lon="0.223595">
        <ele>1191.7</ele>
        <time>2013-03-31T09:10:23Z</time>
      </trkpt>
      <trkpt lat="42.971824" lon="0.223602">
        <ele>1195.1</ele>
        <time>2013-03-31T09:10:41Z</time>
      </trkpt>
      <trkpt lat="42.971708" lon="0.223620">
        <ele>1198.9</ele>
        <time>2013-03-31T09:11:01Z</time>
      </trkpt>
      <trkpt lat="42.971617" lon="0.223616">
        <ele>1202.3</ele>
        <time>2013-03-31T09:11:19Z</time>
      </trkpt>
      <trkpt lat="42.971553" lon="0.223553">
        <ele>1203.7</ele>
        <time>2013-03-31T09:11:34Z</time>
      </trkpt>
      <trkpt lat="42.971490" lon="0.223406">
        <ele>1207.1</ele>
        <time>2013-03-31T09:11:53Z</time>
      </trkpt>
      <trkpt lat="42.971421" lon="0.223257">
        <ele>1210.4</ele>
        <time>2013-03-31T09:12:12Z</time>
      </trkpt>
      <trkpt lat="42.971336" lon="0.223184">
        <ele>1212.4</ele>
        <time>2013-03-31T09:12:24Z</time>
      </trkpt>
      <trkpt lat="42.971241" lon="0.223148">
        <ele>1215.2</ele>
        <time>2013-03-31T09:12:42Z</time>
      </trkpt>
      <trkpt lat="42.971134" lon="0.223152">
        <ele>1218.1</ele>
        <time>2013-03-31T09:12:54Z</time>
      </trkpt>
      <trkpt lat="42.971035" lon="0.223132">
        <ele>1219.6</ele>
        <time>2013-03-31T09:13:06Z</time>
      </trkpt>
      <trkpt lat="42.970926" lon="0.223126">
        <ele>1222.4</ele>
        <time>2013-03-31T09:13:20Z</time>
      </trkpt>
      <trkpt lat="42.970840" lon="0.223131">
        <ele>1224.4</ele>
        <time>2013-03-31T09:13:35Z</time>
      </trkpt>
      <trkpt lat="42.970746" lon="0.223194">
        <ele>1227.7</ele>
        <time>2013-03-31T09:13:50Z</time>
      </trkpt>
      <trkpt lat="42.970651" lon="0.223214">
        <ele>1230.6</ele>
        <time>2013-03-31T09:14:05Z</time>
      </trkpt>
      <trkpt lat="42.970546" lon="0.223259">
        <ele>1234.0</ele>
        <time>2013-03-31T09:14:20Z</time>
      </trkpt>
      <trkpt lat="42.970452" lon="0.223280">
        <ele>1236.9</ele>
        <time>2013-03-31T09:14:33Z</time>
      </trkpt>
      <trkpt lat="42.970353" lon="0.223290">
        <ele>1239.3</ele>
        <time>2013-03-31T09:14:47Z</time>
      </trkpt>
      <trkpt lat="42.970252" lon="0.223333">
        <ele>1241.7</ele>
        <time>2013-03-31T09:15:01Z</time>
      </trkpt>
      <trkpt lat="42.970151" lon="0.223372">
        <ele>1243.6</ele>
        <time>2013-03-31T09:15:15Z</time>
      </trkpt>
      <trkpt lat="42.970061" lon="0.223422">
        <ele>1245.0</ele>
        <time>2013-03-31T09:15:28Z</time>
      </trkpt>
      <trkpt lat="42.969960" lon="0.223470">
        <ele>1247.0</ele>
        <time>2013-03-31T09:15:41Z</time>
      </trkpt>
      <trkpt lat="42.969865" lon="0.223524">
        <ele>1248.4</ele>
        <time>2013-03-31T09:15:53Z</time>
      </trkpt>
      <trkpt lat="42.969774" lon="0.223542">
        <ele>1250.3</ele>
        <time>2013-03-31T09:16:05Z</time>
      </trkpt>
      <trkpt lat="42.969685" lon="0.223508">
        <ele>1252.2</ele>
        <time>2013-03-31T09:16:17Z</time>
      </trkpt>
      <trkpt lat="42.969605" lon="0.223483">
        <ele>1254.7</ele>
        <time>2013-03-31T09:16:33Z</time>
      </trkpt>
      <trkpt lat="42.969511" lon="0.223477">
        <ele>1257.1</ele>
        <time>2013-03-31T09:16:48Z</time>
      </trkpt>
      <trkpt lat="42.969410" lon="0.223452">
        <ele>1259.5</ele>
        <time>2013-03-31T09:17:01Z</time>
      </trkpt>
      <trkpt lat="42.969322" lon="0.223429">
        <ele>1261.4</ele>
        <time>2013-03-31T09:17:14Z</time>
      </trkpt>
      <trkpt lat="42.969240" lon="0.223359">
        <ele>1262.8</ele>
        <time>2013-03-31T09:18:11Z</time>
      </trkpt>
      <trkpt lat="42.969147" lon="0.223328">
        <ele>1265.7</ele>
        <time>2013-03-31T09:18:23Z</time>
      </trkpt>
      <trkpt lat="42.969054" lon="0.223265">
        <ele>1267.2</ele>
        <time>2013-03-31T09:18:35Z</time>
      </trkpt>
      <trkpt lat="42.968965" lon="0.223227">
        <ele>1269.6</ele>
        <time>2013-03-31T09:18:48Z</time>
      </trkpt>
      <trkpt lat="42.968864" lon="0.223207">
        <ele>1272.4</ele>
        <time>2013-03-31T09:19:02Z</time>
      </trkpt>
      <trkpt lat="42.968768" lon="0.223177">
        <ele>1274.8</ele>
        <time>2013-03-31T09:19:16Z</time>
      </trkpt>
      <trkpt lat="42.968662" lon="0.223195">
        <ele>1277.7</ele>
        <time>2013-03-31T09:19:29Z</time>
      </trkpt>
      <trkpt lat="42.968562" lon="0.223179">
        <ele>1279.7</ele>
        <time>2013-03-31T09:19:41Z</time>
      </trkpt>
      <trkpt lat="42.968453" lon="0.223164">
        <ele>1282.1</ele>
        <time>2013-03-31T09:19:56Z</time>
      </trkpt>
      <trkpt lat="42.968364" lon="0.223177">
        <ele>1284.0</ele>
        <time>2013-03-31T09:20:13Z</time>
      </trkpt>
      <trkpt lat="42.968255" lon="0.223164">
        <ele>1284.9</ele>
        <time>2013-03-31T09:20:26Z</time>
      </trkpt>
      <trkpt lat="42.968136" lon="0.223144">
        <ele>1288.3</ele>
        <time>2013-03-31T09:20:43Z</time>
      </trkpt>
      <trkpt lat="42.968024" lon="0.223146">
        <ele>1291.2</ele>
        <time>2013-03-31T09:20:59Z</time>
      </trkpt>
      <trkpt lat="42.967928" lon="0.223068">
        <ele>1293.1</ele>
        <time>2013-03-31T09:21:15Z</time>
      </trkpt>
      <trkpt lat="42.967813" lon="0.223010">
        <ele>1297.0</ele>
        <time>2013-03-31T09:21:34Z</time>
      </trkpt>
      <trkpt lat="42.967694" lon="0.222960">
        <ele>1298.9</ele>
        <time>2013-03-31T09:21:52Z</time>
      </trkpt>
      <trkpt lat="42.967582" lon="0.222915">
        <ele>1302.2</ele>
        <time>2013-03-31T09:22:11Z</time>
      </trkpt>
      <trkpt lat="42.967436" lon="0.222905">
        <ele>1306.6</ele>
        <time>2013-03-31T09:22:36Z</time>
      </trkpt>
      <trkpt lat="42.967331" lon="0.222876">
        <ele>1310.4</ele>
        <time>2013-03-31T09:22:56Z</time>
      </trkpt>
      <trkpt lat="42.967256" lon="0.222794">
        <ele>1312.3</ele>
        <time>2013-03-31T09:23:13Z</time>
      </trkpt>
      <trkpt lat="42.967133" lon="0.222769">
        <ele>1315.7</ele>
        <time>2013-03-31T09:23:31Z</time>
      </trkpt>
      <trkpt lat="42.967006" lon="0.222719">
        <ele>1318.1</ele>
        <time>2013-03-31T09:23:48Z</time>
      </trkpt>
      <trkpt lat="42.966893" lon="0.222658">
        <ele>1320.0</ele>
        <time>2013-03-31T09:24:04Z</time>
      </trkpt>
      <trkpt lat="42.966799" lon="0.222627">
        <ele>1322.9</ele>
        <time>2013-03-31T09:24:19Z</time>
      </trkpt>
      <trkpt lat="42.966721" lon="0.222566">
        <ele>1325.8</ele>
        <time>2013-03-31T09:24:37Z</time>
      </trkpt>
      <trkpt lat="42.966611" lon="0.222568">
        <ele>1329.2</ele>
        <time>2013-03-31T09:24:59Z</time>
      </trkpt>
      <trkpt lat="42.966533" lon="0.222526">
        <ele>1331.1</ele>
        <time>2013-03-31T09:25:18Z</time>
      </trkpt>
      <trkpt lat="42.966437" lon="0.222481">
        <ele>1334.9</ele>
        <time>2013-03-31T09:25:39Z</time>
      </trkpt>
      <trkpt lat="42.966341" lon="0.222445">
        <ele>1337.3</ele>
        <time>2013-03-31T09:25:57Z</time>
      </trkpt>
      <trkpt lat="42.966241" lon="0.222409">
        <ele>1339.7</ele>
        <time>2013-03-31T09:26:14Z</time>
      </trkpt>
      <trkpt lat="42.966155" lon="0.222413">
        <ele>1341.7</ele>
        <time>2013-03-31T09:26:29Z</time>
      </trkpt>
      <trkpt lat="42.966059" lon="0.222416">
        <ele>1344.5</ele>
        <time>2013-03-31T09:26:46Z</time>
      </trkpt>
      <trkpt lat="42.965960" lon="0.222414">
        <ele>1346.9</ele>
        <time>2013-03-31T09:27:03Z</time>
      </trkpt>
      <trkpt lat="42.965870" lon="0.222359">
        <ele>1349.3</ele>
        <time>2013-03-31T09:27:21Z</time>
      </trkpt>
      <trkpt lat="42.965763" lon="0.222369">
        <ele>1352.7</ele>
        <time>2013-03-31T09:27:41Z</time>
      </trkpt>
      <trkpt lat="42.965663" lon="0.222384">
        <ele>1355.1</ele>
        <time>2013-03-31T09:28:00Z</time>
      </trkpt>
      <trkpt lat="42.965561" lon="0.222392">
        <ele>1358.0</ele>
        <time>2013-03-31T09:28:17Z</time>
      </trkpt>
      <trkpt lat="42.965455" lon="0.222426">
        <ele>1360.9</ele>
        <time>2013-03-31T09:28:40Z</time>
      </trkpt>
      <trkpt lat="42.965343" lon="0.222443">
        <ele>1363.3</ele>
        <time>2013-03-31T09:28:59Z</time>
      </trkpt>
      <trkpt lat="42.965268" lon="0.222511">
        <ele>1365.7</ele>
        <time>2013-03-31T09:29:22Z</time>
      </trkpt>
      <trkpt lat="42.965167" lon="0.222553">
        <ele>1369.5</ele>
        <time>2013-03-31T09:29:44Z</time>
      </trkpt>
      <trkpt lat="42.965065" lon="0.222585">
        <ele>1373.9</ele>
        <time>2013-03-31T09:30:07Z</time>
      </trkpt>
      <trkpt lat="42.964971" lon="0.222531">
        <ele>1377.2</ele>
        <time>2013-03-31T09:30:27Z</time>
      </trkpt>
      <trkpt lat="42.964876" lon="0.222476">
        <ele>1380.1</ele>
        <time>2013-03-31T09:31:17Z</time>
      </trkpt>
      <trkpt lat="42.964766" lon="0.222409">
        <ele>1383.0</ele>
        <time>2013-03-31T09:31:40Z</time>
      </trkpt>
      <trkpt lat="42.964669" lon="0.222404">
        <ele>1387.8</ele>
        <time>2013-03-31T09:32:08Z</time>
      </trkpt>
      <trkpt lat="42.964574" lon="0.222360">
        <ele>1388.8</ele>
        <time>2013-03-31T09:32:27Z</time>
      </trkpt>
      <trkpt lat="42.964467" lon="0.222310">
        <ele>1392.1</ele>
        <time>2013-03-31T09:32:49Z</time>
      </trkpt>
      <trkpt lat="42.964366" lon="0.222263">
        <ele>1394.1</ele>
        <time>2013-03-31T09:33:08Z</time>
      </trkpt>
      <trkpt lat="42.964279" lon="0.222202">
        <ele>1396.9</ele>
        <time>2013-03-31T09:33:57Z</time>
      </trkpt>
      <trkpt lat="42.964193" lon="0.222145">
        <ele>1398.9</ele>
        <time>2013-03-31T09:34:15Z</time>
      </trkpt>
      <trkpt lat="42.964105" lon="0.222097">
        <ele>1400.8</ele>
        <time>2013-03-31T09:34:33Z</time>
      </trkpt>
      <trkpt lat="42.964016" lon="0.222087">
        <ele>1404.1</ele>
        <time>2013-03-31T09:34:53Z</time>
      </trkpt>
      <trkpt lat="42.963931" lon="0.222038">
        <ele>1406.6</ele>
        <time>2013-03-31T09:35:10Z</time>
      </trkpt>
      <trkpt lat="42.963850" lon="0.221971">
        <ele>1408.9</ele>
        <time>2013-03-31T09:35:28Z</time>
      </trkpt>
      <trkpt lat="42.963770" lon="0.221901">
        <ele>1410.9</ele>
        <time>2013-03-31T09:35:47Z</time>
      </trkpt>
      <trkpt lat="42.963699" lon="0.221829">
        <ele>1412.8</ele>
        <time>2013-03-31T09:36:04Z</time>
      </trkpt>
      <trkpt lat="42.963633" lon="0.221768">
        <ele>1415.2</ele>
        <time>2013-03-31T09:36:19Z</time>
      </trkpt>
      <trkpt lat="42.963545" lon="0.221690">
        <ele>1417.6</ele>
        <time>2013-03-31T09:36:34Z</time>
      </trkpt>
      <trkpt lat="42.963473" lon="0.221625">
        <ele>1421.4</ele>
        <time>2013-03-31T09:36:51Z</time>
      </trkpt>
      <trkpt lat="42.963398" lon="0.221518">
        <ele>1423.4</ele>
        <time>2013-03-31T09:37:09Z</time>
      </trkpt>
      <trkpt lat="42.963326" lon="0.221439">
        <ele>1425.8</ele>
        <time>2013-03-31T09:37:24Z</time>
      </trkpt>
      <trkpt lat="42.963276" lon="0.221323">
        <ele>1427.7</ele>
        <time>2013-03-31T09:37:38Z</time>
      </trkpt>
      <trkpt lat="42.963223" lon="0.221230">
        <ele>1429.6</ele>
        <time>2013-03-31T09:37:50Z</time>
      </trkpt>
      <trkpt lat="42.963163" lon="0.221122">
        <ele>1430.6</ele>
        <time>2013-03-31T09:38:03Z</time>
      </trkpt>
      <trkpt lat="42.963105" lon="0.221007">
        <ele>1432.5</ele>
        <time>2013-03-31T09:38:17Z</time>
      </trkpt>
      <trkpt lat="42.963071" lon="0.220907">
        <ele>1433.9</ele>
        <time>2013-03-31T09:38:31Z</time>
      </trkpt>
      <trkpt lat="42.963012" lon="0.220813">
        <ele>1436.3</ele>
        <time>2013-03-31T09:38:44Z</time>
      </trkpt>
      <trkpt lat="42.962964" lon="0.220697">
        <ele>1437.8</ele>
        <time>2013-03-31T09:38:58Z</time>
      </trkpt>
      <trkpt lat="42.962911" lon="0.220583">
        <ele>1440.7</ele>
        <time>2013-03-31T09:39:14Z</time>
      </trkpt>
      <trkpt lat="42.962865" lon="0.220465">
        <ele>1443.1</ele>
        <time>2013-03-31T09:39:29Z</time>
      </trkpt>
      <trkpt lat="42.962822" lon="0.220338">
        <ele>1445.0</ele>
        <time>2013-03-31T09:39:42Z</time>
      </trkpt>
      <trkpt lat="42.962781" lon="0.220233">
        <ele>1447.4</ele>
        <time>2013-03-31T09:39:58Z</time>
      </trkpt>
      <trkpt lat="42.962733" lon="0.220154">
        <ele>1450.3</ele>
        <time>2013-03-31T09:40:16Z</time>
      </trkpt>
      <trkpt lat="42.962668" lon="0.220048">
        <ele>1453.7</ele>
        <time>2013-03-31T09:40:33Z</time>
      </trkpt>
      <trkpt lat="42.962599" lon="0.219940">
        <ele>1456.5</ele>
        <time>2013-03-31T09:40:50Z</time>
        <name>Courtaou d'Empieye</name>
      </trkpt>
      <trkpt lat="42.962574" lon="0.219842">
        <ele>1457.0</ele>
        <time>2013-03-31T09:42:04Z</time>
      </trkpt>
      <trkpt lat="42.962572" lon="0.219781">
        <ele>1457.0</ele>
        <time>2013-03-31T09:49:50Z</time>
      </trkpt>
      <trkpt lat="42.962514" lon="0.219718">
        <ele>1458.0</ele>
        <time>2013-03-31T09:50:03Z</time>
      </trkpt>
      <trkpt lat="42.962460" lon="0.219639">
        <ele>1460.4</ele>
        <time>2013-03-31T09:50:23Z</time>
      </trkpt>
      <trkpt lat="42.962411" lon="0.219534">
        <ele>1462.8</ele>
        <time>2013-03-31T09:50:38Z</time>
      </trkpt>
      <trkpt lat="42.962377" lon="0.219512">
        <ele>1464.2</ele>
        <time>2013-03-31T09:51:45Z</time>
      </trkpt>
      <trkpt lat="42.962322" lon="0.219460">
        <ele>1466.6</ele>
        <time>2013-03-31T09:52:00Z</time>
      </trkpt>
      <trkpt lat="42.962272" lon="0.219374">
        <ele>1469.5</ele>
        <time>2013-03-31T09:52:15Z</time>
      </trkpt>
      <trkpt lat="42.962216" lon="0.219294">
        <ele>1473.8</ele>
        <time>2013-03-31T09:52:35Z</time>
      </trkpt>
      <trkpt lat="42.962154" lon="0.219189">
        <ele>1478.7</ele>
        <time>2013-03-31T09:53:01Z</time>
      </trkpt>
      <trkpt lat="42.962091" lon="0.219124">
        <ele>1483.4</ele>
        <time>2013-03-31T09:53:26Z</time>
      </trkpt>
      <trkpt lat="42.962059" lon="0.219042">
        <ele>1487.8</ele>
        <time>2013-03-31T09:53:53Z</time>
      </trkpt>
      <trkpt lat="42.962036" lon="0.218932">
        <ele>1492.6</ele>
        <time>2013-03-31T09:54:20Z</time>
      </trkpt>
      <trkpt lat="42.961979" lon="0.218827">
        <ele>1496.4</ele>
        <time>2013-03-31T09:54:43Z</time>
      </trkpt>
      <trkpt lat="42.961926" lon="0.218744">
        <ele>1499.8</ele>
        <time>2013-03-31T09:55:02Z</time>
      </trkpt>
      <trkpt lat="42.961871" lon="0.218651">
        <ele>1504.1</ele>
        <time>2013-03-31T09:55:22Z</time>
      </trkpt>
      <trkpt lat="42.961804" lon="0.218604">
        <ele>1508.4</ele>
        <time>2013-03-31T09:55:40Z</time>
      </trkpt>
      <trkpt lat="42.961720" lon="0.218541">
        <ele>1513.2</ele>
        <time>2013-03-31T09:56:00Z</time>
      </trkpt>
      <trkpt lat="42.961661" lon="0.218463">
        <ele>1517.1</ele>
        <time>2013-03-31T09:56:21Z</time>
      </trkpt>
      <trkpt lat="42.961586" lon="0.218374">
        <ele>1520.5</ele>
        <time>2013-03-31T09:56:35Z</time>
      </trkpt>
      <trkpt lat="42.961523" lon="0.218291">
        <ele>1523.3</ele>
        <time>2013-03-31T09:56:52Z</time>
      </trkpt>
      <trkpt lat="42.961488" lon="0.218178">
        <ele>1525.8</ele>
        <time>2013-03-31T09:57:55Z</time>
      </trkpt>
      <trkpt lat="42.961446" lon="0.218070">
        <ele>1529.1</ele>
        <time>2013-03-31T09:58:14Z</time>
      </trkpt>
      <trkpt lat="42.961427" lon="0.217947">
        <ele>1530.6</ele>
        <time>2013-03-31T09:58:28Z</time>
      </trkpt>
      <trkpt lat="42.961434" lon="0.217828">
        <ele>1533.0</ele>
        <time>2013-03-31T09:58:42Z</time>
      </trkpt>
      <trkpt lat="42.961414" lon="0.217705">
        <ele>1534.9</ele>
        <time>2013-03-31T09:58:54Z</time>
      </trkpt>
      <trkpt lat="42.961415" lon="0.217582">
        <ele>1535.8</ele>
        <time>2013-03-31T09:59:38Z</time>
      </trkpt>
      <trkpt lat="42.961420" lon="0.217466">
        <ele>1538.7</ele>
        <time>2013-03-31T09:59:52Z</time>
      </trkpt>
      <trkpt lat="42.961403" lon="0.217343">
        <ele>1541.1</ele>
        <time>2013-03-31T10:00:06Z</time>
      </trkpt>
      <trkpt lat="42.961397" lon="0.217227">
        <ele>1543.5</ele>
        <time>2013-03-31T10:00:18Z</time>
      </trkpt>
      <trkpt lat="42.961394" lon="0.217114">
        <ele>1546.4</ele>
        <time>2013-03-31T10:00:35Z</time>
      </trkpt>
      <trkpt lat="42.961389" lon="0.216990">
        <ele>1549.8</ele>
        <time>2013-03-31T10:00:54Z</time>
      </trkpt>
      <trkpt lat="42.961391" lon="0.216864">
        <ele>1550.7</ele>
        <time>2013-03-31T10:01:43Z</time>
      </trkpt>
      <trkpt lat="42.961348" lon="0.216733">
        <ele>1554.6</ele>
        <time>2013-03-31T10:01:58Z</time>
      </trkpt>
      <trkpt lat="42.961321" lon="0.216595">
        <ele>1558.4</ele>
        <time>2013-03-31T10:02:17Z</time>
      </trkpt>
      <trkpt lat="42.961294" lon="0.216498">
        <ele>1562.3</ele>
        <time>2013-03-31T10:02:36Z</time>
      </trkpt>
      <trkpt lat="42.961271" lon="0.216376">
        <ele>1566.1</ele>
        <time>2013-03-31T10:02:59Z</time>
      </trkpt>
      <trkpt lat="42.961251" lon="0.216258">
        <ele>1570.0</ele>
        <time>2013-03-31T10:03:18Z</time>
      </trkpt>
      <trkpt lat="42.961233" lon="0.216123">
        <ele>1574.8</ele>
        <time>2013-03-31T10:03:44Z</time>
      </trkpt>
      <trkpt lat="42.961196" lon="0.216018">
        <ele>1579.1</ele>
        <time>2013-03-31T10:04:10Z</time>
      </trkpt>
      <trkpt lat="42.961211" lon="0.215884">
        <ele>1582.5</ele>
        <time>2013-03-31T10:04:32Z</time>
      </trkpt>
      <trkpt lat="42.961217" lon="0.215757">
        <ele>1584.9</ele>
        <time>2013-03-31T10:04:49Z</time>
      </trkpt>
      <trkpt lat="42.961152" lon="0.215681">
        <ele>1588.2</ele>
        <time>2013-03-31T10:05:08Z</time>
      </trkpt>
      <trkpt lat="42.961123" lon="0.215549">
        <ele>1591.6</ele>
        <time>2013-03-31T10:05:26Z</time>
      </trkpt>
      <trkpt lat="42.961102" lon="0.215418">
        <ele>1594.5</ele>
        <time>2013-03-31T10:05:47Z</time>
      </trkpt>
      <trkpt lat="42.961065" lon="0.215316">
        <ele>1597.8</ele>
        <time>2013-03-31T10:06:10Z</time>
      </trkpt>
      <trkpt lat="42.961016" lon="0.215203">
        <ele>1601.7</ele>
        <time>2013-03-31T10:06:33Z</time>
      </trkpt>
      <trkpt lat="42.960962" lon="0.215108">
        <ele>1606.0</ele>
        <time>2013-03-31T10:06:58Z</time>
      </trkpt>
      <trkpt lat="42.960879" lon="0.215029">
        <ele>1610.3</ele>
        <time>2013-03-31T10:07:26Z</time>
      </trkpt>
      <trkpt lat="42.960913" lon="0.214937">
        <ele>1612.8</ele>
        <time>2013-03-31T10:07:51Z</time>
      </trkpt>
      <trkpt lat="42.960876" lon="0.214831">
        <ele>1616.6</ele>
        <time>2013-03-31T10:08:15Z</time>
      </trkpt>
      <trkpt lat="42.960830" lon="0.214815">
        <ele>1618.5</ele>
        <time>2013-03-31T10:08:44Z</time>
      </trkpt>
      <trkpt lat="42.960836" lon="0.214720">
        <ele>1620.0</ele>
        <time>2013-03-31T10:13:19Z</time>
      </trkpt>
      <trkpt lat="42.960772" lon="0.214693">
        <ele>1622.8</ele>
        <time>2013-03-31T10:13:36Z</time>
      </trkpt>
      <trkpt lat="42.960681" lon="0.214668">
        <ele>1626.7</ele>
        <time>2013-03-31T10:13:54Z</time>
      </trkpt>
      <trkpt lat="42.960592" lon="0.214600">
        <ele>1631.0</ele>
        <time>2013-03-31T10:14:21Z</time>
      </trkpt>
      <trkpt lat="42.960545" lon="0.214519">
        <ele>1635.8</ele>
        <time>2013-03-31T10:14:51Z</time>
      </trkpt>
      <trkpt lat="42.960457" lon="0.214531">
        <ele>1639.7</ele>
        <time>2013-03-31T10:15:19Z</time>
      </trkpt>
      <trkpt lat="42.960375" lon="0.214473">
        <ele>1644.0</ele>
        <time>2013-03-31T10:15:39Z</time>
      </trkpt>
      <trkpt lat="42.960361" lon="0.214361">
        <ele>1647.8</ele>
        <time>2013-03-31T10:15:58Z</time>
      </trkpt>
      <trkpt lat="42.960374" lon="0.214254">
        <ele>1650.2</ele>
        <time>2013-03-31T10:16:16Z</time>
      </trkpt>
      <trkpt lat="42.960356" lon="0.214145">
        <ele>1652.6</ele>
        <time>2013-03-31T10:16:32Z</time>
      </trkpt>
      <trkpt lat="42.960352" lon="0.214037">
        <ele>1655.5</ele>
        <time>2013-03-31T10:16:49Z</time>
      </trkpt>
      <trkpt lat="42.960316" lon="0.213973">
        <ele>1658.4</ele>
        <time>2013-03-31T10:17:06Z</time>
      </trkpt>
      <trkpt lat="42.960285" lon="0.213840">
        <ele>1660.3</ele>
        <time>2013-03-31T10:17:27Z</time>
      </trkpt>
      <trkpt lat="42.960202" lon="0.213761">
        <ele>1665.1</ele>
        <time>2013-03-31T10:17:56Z</time>
      </trkpt>
      <trkpt lat="42.960148" lon="0.213624">
        <ele>1668.5</ele>
        <time>2013-03-31T10:18:20Z</time>
      </trkpt>
      <trkpt lat="42.960133" lon="0.213518">
        <ele>1670.9</ele>
        <time>2013-03-31T10:18:37Z</time>
      </trkpt>
      <trkpt lat="42.960072" lon="0.213438">
        <ele>1674.8</ele>
        <time>2013-03-31T10:19:04Z</time>
      </trkpt>
      <trkpt lat="42.960032" lon="0.213301">
        <ele>1679.1</ele>
        <time>2013-03-31T10:19:28Z</time>
      </trkpt>
      <trkpt lat="42.960043" lon="0.213192">
        <ele>1682.0</ele>
        <time>2013-03-31T10:19:47Z</time>
      </trkpt>
      <trkpt lat="42.960015" lon="0.213091">
        <ele>1685.3</ele>
        <time>2013-03-31T10:20:06Z</time>
      </trkpt>
      <trkpt lat="42.959995" lon="0.212965">
        <ele>1689.7</ele>
        <time>2013-03-31T10:20:29Z</time>
      </trkpt>
      <trkpt lat="42.959971" lon="0.212848">
        <ele>1692.5</ele>
        <time>2013-03-31T10:20:49Z</time>
      </trkpt>
      <trkpt lat="42.959948" lon="0.212712">
        <ele>1697.3</ele>
        <time>2013-03-31T10:21:13Z</time>
      </trkpt>
      <trkpt lat="42.959925" lon="0.212601">
        <ele>1700.7</ele>
        <time>2013-03-31T10:21:32Z</time>
      </trkpt>
      <trkpt lat="42.959874" lon="0.212525">
        <ele>1702.6</ele>
        <time>2013-03-31T10:21:46Z</time>
      </trkpt>
      <trkpt lat="42.959878" lon="0.212518">
        <ele>1703.1</ele>
        <time>2013-03-31T10:25:18Z</time>
      </trkpt>
      <trkpt lat="42.959852" lon="0.212461">
        <ele>1703.6</ele>
        <time>2013-03-31T10:27:05Z</time>
      </trkpt>
      <trkpt lat="42.959806" lon="0.212358">
        <ele>1704.1</ele>
        <time>2013-03-31T10:27:24Z</time>
      </trkpt>
      <trkpt lat="42.959766" lon="0.212251">
        <ele>1704.1</ele>
        <time>2013-03-31T10:27:37Z</time>
      </trkpt>
      <trkpt lat="42.959722" lon="0.212149">
        <ele>1706.0</ele>
        <time>2013-03-31T10:27:46Z</time>
      </trkpt>
      <trkpt lat="42.959687" lon="0.212036">
        <ele>1707.4</ele>
        <time>2013-03-31T10:27:55Z</time>
      </trkpt>
      <trkpt lat="42.959639" lon="0.211934">
        <ele>1707.0</ele>
        <time>2013-03-31T10:28:03Z</time>
      </trkpt>
      <trkpt lat="42.959579" lon="0.211840">
        <ele>1707.9</ele>
        <time>2013-03-31T10:28:11Z</time>
      </trkpt>
      <trkpt lat="42.959537" lon="0.211732">
        <ele>1708.9</ele>
        <time>2013-03-31T10:28:20Z</time>
      </trkpt>
      <trkpt lat="42.959494" lon="0.211609">
        <ele>1710.3</ele>
        <time>2013-03-31T10:28:29Z</time>
      </trkpt>
      <trkpt lat="42.959466" lon="0.211482">
        <ele>1711.8</ele>
        <time>2013-03-31T10:28:38Z</time>
      </trkpt>
      <trkpt lat="42.959445" lon="0.211348">
        <ele>1712.7</ele>
        <time>2013-03-31T10:28:48Z</time>
      </trkpt>
      <trkpt lat="42.959416" lon="0.211228">
        <ele>1713.2</ele>
        <time>2013-03-31T10:28:57Z</time>
      </trkpt>
      <trkpt lat="42.959374" lon="0.211108">
        <ele>1714.2</ele>
        <time>2013-03-31T10:29:06Z</time>
      </trkpt>
      <trkpt lat="42.959329" lon="0.211000">
        <ele>1714.2</ele>
        <time>2013-03-31T10:29:13Z</time>
      </trkpt>
      <trkpt lat="42.959280" lon="0.210896">
        <ele>1715.1</ele>
        <time>2013-03-31T10:29:21Z</time>
      </trkpt>
      <trkpt lat="42.959245" lon="0.210780">
        <ele>1715.1</ele>
        <time>2013-03-31T10:29:29Z</time>
      </trkpt>
      <trkpt lat="42.959213" lon="0.210657">
        <ele>1716.6</ele>
        <time>2013-03-31T10:29:38Z</time>
      </trkpt>
      <trkpt lat="42.959203" lon="0.210542">
        <ele>1718.0</ele>
        <time>2013-03-31T10:29:47Z</time>
      </trkpt>
      <trkpt lat="42.959181" lon="0.210408">
        <ele>1719.0</ele>
        <time>2013-03-31T10:29:57Z</time>
      </trkpt>
      <trkpt lat="42.959177" lon="0.210281">
        <ele>1720.4</ele>
        <time>2013-03-31T10:30:06Z</time>
      </trkpt>
      <trkpt lat="42.959167" lon="0.210158">
        <ele>1722.3</ele>
        <time>2013-03-31T10:30:15Z</time>
      </trkpt>
      <trkpt lat="42.959173" lon="0.210032">
        <ele>1723.8</ele>
        <time>2013-03-31T10:30:24Z</time>
      </trkpt>
      <trkpt lat="42.959181" lon="0.209913">
        <ele>1725.2</ele>
        <time>2013-03-31T10:30:34Z</time>
      </trkpt>
      <trkpt lat="42.959207" lon="0.209786">
        <ele>1725.7</ele>
        <time>2013-03-31T10:30:44Z</time>
      </trkpt>
      <trkpt lat="42.959234" lon="0.209686">
        <ele>1727.2</ele>
        <time>2013-03-31T10:31:23Z</time>
      </trkpt>
      <trkpt lat="42.959242" lon="0.209569">
        <ele>1727.6</ele>
        <time>2013-03-31T10:32:10Z</time>
      </trkpt>
      <trkpt lat="42.959248" lon="0.209445">
        <ele>1728.1</ele>
        <time>2013-03-31T10:32:20Z</time>
      </trkpt>
      <trkpt lat="42.959266" lon="0.209323">
        <ele>1728.6</ele>
        <time>2013-03-31T10:32:32Z</time>
      </trkpt>
      <trkpt lat="42.959278" lon="0.209200">
        <ele>1730.5</ele>
        <time>2013-03-31T10:32:46Z</time>
      </trkpt>
      <trkpt lat="42.959300" lon="0.209073">
        <ele>1732.4</ele>
        <time>2013-03-31T10:32:59Z</time>
      </trkpt>
      <trkpt lat="42.959341" lon="0.208961">
        <ele>1733.4</ele>
        <time>2013-03-31T10:33:10Z</time>
      </trkpt>
      <trkpt lat="42.959363" lon="0.208830">
        <ele>1733.4</ele>
        <time>2013-03-31T10:33:20Z</time>
      </trkpt>
      <trkpt lat="42.959409" lon="0.208730">
        <ele>1734.4</ele>
        <time>2013-03-31T10:33:30Z</time>
      </trkpt>
      <trkpt lat="42.959462" lon="0.208628">
        <ele>1734.8</ele>
        <time>2013-03-31T10:33:44Z</time>
      </trkpt>
      <trkpt lat="42.959528" lon="0.208541">
        <ele>1736.3</ele>
        <time>2013-03-31T10:33:56Z</time>
      </trkpt>
      <trkpt lat="42.959562" lon="0.208418">
        <ele>1737.2</ele>
        <time>2013-03-31T10:34:07Z</time>
      </trkpt>
      <trkpt lat="42.959591" lon="0.208295">
        <ele>1737.7</ele>
        <time>2013-03-31T10:34:18Z</time>
      </trkpt>
      <trkpt lat="42.959615" lon="0.208163">
        <ele>1738.2</ele>
        <time>2013-03-31T10:34:28Z</time>
      </trkpt>
      <trkpt lat="42.959673" lon="0.208057">
        <ele>1739.2</ele>
        <time>2013-03-31T10:34:38Z</time>
      </trkpt>
      <trkpt lat="42.959711" lon="0.207930">
        <ele>1739.6</ele>
        <time>2013-03-31T10:34:48Z</time>
      </trkpt>
      <trkpt lat="42.959746" lon="0.207808">
        <ele>1739.2</ele>
        <time>2013-03-31T10:34:57Z</time>
      </trkpt>
      <trkpt lat="42.959766" lon="0.207679">
        <ele>1739.6</ele>
        <time>2013-03-31T10:35:06Z</time>
      </trkpt>
      <trkpt lat="42.959796" lon="0.207557">
        <ele>1741.6</ele>
        <time>2013-03-31T10:35:17Z</time>
      </trkpt>
      <trkpt lat="42.959854" lon="0.207448">
        <ele>1743.0</ele>
        <time>2013-03-31T10:35:28Z</time>
      </trkpt>
      <trkpt lat="42.959909" lon="0.207340">
        <ele>1744.4</ele>
        <time>2013-03-31T10:35:39Z</time>
      </trkpt>
      <trkpt lat="42.959966" lon="0.207237">
        <ele>1745.4</ele>
        <time>2013-03-31T10:35:48Z</time>
      </trkpt>
      <trkpt lat="42.960019" lon="0.207134">
        <ele>1746.4</ele>
        <time>2013-03-31T10:35:59Z</time>
      </trkpt>
      <trkpt lat="42.960065" lon="0.207021">
        <ele>1747.3</ele>
        <time>2013-03-31T10:36:09Z</time>
      </trkpt>
      <trkpt lat="42.960078" lon="0.206885">
        <ele>1747.8</ele>
        <time>2013-03-31T10:36:19Z</time>
      </trkpt>
      <trkpt lat="42.960097" lon="0.206758">
        <ele>1746.8</ele>
        <time>2013-03-31T10:36:29Z</time>
      </trkpt>
      <trkpt lat="42.960102" lon="0.206624">
        <ele>1748.3</ele>
        <time>2013-03-31T10:36:40Z</time>
      </trkpt>
      <trkpt lat="42.960125" lon="0.206491">
        <ele>1747.3</ele>
        <time>2013-03-31T10:36:50Z</time>
      </trkpt>
      <trkpt lat="42.960125" lon="0.206359">
        <ele>1747.8</ele>
        <time>2013-03-31T10:37:00Z</time>
      </trkpt>
      <trkpt lat="42.960139" lon="0.206232">
        <ele>1748.3</ele>
        <time>2013-03-31T10:37:09Z</time>
      </trkpt>
      <trkpt lat="42.960140" lon="0.206101">
        <ele>1748.8</ele>
        <time>2013-03-31T10:37:18Z</time>
      </trkpt>
      <trkpt lat="42.960154" lon="0.205975">
        <ele>1750.7</ele>
        <time>2013-03-31T10:37:27Z</time>
      </trkpt>
      <trkpt lat="42.960179" lon="0.205865">
        <ele>1751.7</ele>
        <time>2013-03-31T10:37:37Z</time>
      </trkpt>
      <trkpt lat="42.960195" lon="0.205744">
        <ele>1752.6</ele>
        <time>2013-03-31T10:37:47Z</time>
        <name>Pla de la Serre</name>
      </trkpt>
      <trkpt lat="42.960212" lon="0.205604">
        <ele>1754.1</ele>
        <time>2013-03-31T10:37:57Z</time>
      </trkpt>
      <trkpt lat="42.960236" lon="0.205473">
        <ele>1756.0</ele>
        <time>2013-03-31T10:38:08Z</time>
      </trkpt>
      <trkpt lat="42.960270" lon="0.205362">
        <ele>1757.4</ele>
        <time>2013-03-31T10:38:17Z</time>
      </trkpt>
      <trkpt lat="42.960280" lon="0.205227">
        <ele>1758.4</ele>
        <time>2013-03-31T10:38:27Z</time>
      </trkpt>
      <trkpt lat="42.960288" lon="0.205090">
        <ele>1758.9</ele>
        <time>2013-03-31T10:38:37Z</time>
      </trkpt>
      <trkpt lat="42.960307" lon="0.205013">
        <ele>1759.3</ele>
        <time>2013-03-31T10:51:24Z</time>
      </trkpt>
      <trkpt lat="42.960293" lon="0.204887">
        <ele>1762.2</ele>
        <time>2013-03-31T10:51:41Z</time>
      </trkpt>
      <trkpt lat="42.960288" lon="0.204763">
        <ele>1764.2</ele>
        <time>2013-03-31T10:52:00Z</time>
      </trkpt>
      <trkpt lat="42.960266" lon="0.204666">
        <ele>1767.5</ele>
        <time>2013-03-31T10:52:38Z</time>
      </trkpt>
      <trkpt lat="42.960281" lon="0.204561">
        <ele>1771.4</ele>
        <time>2013-03-31T10:52:59Z</time>
      </trkpt>
      <trkpt lat="42.960275" lon="0.204460">
        <ele>1775.2</ele>
        <time>2013-03-31T10:54:01Z</time>
      </trkpt>
      <trkpt lat="42.960280" lon="0.204333">
        <ele>1780.0</ele>
        <time>2013-03-31T10:54:33Z</time>
      </trkpt>
      <trkpt lat="42.960278" lon="0.204228">
        <ele>1783.9</ele>
        <time>2013-03-31T10:55:06Z</time>
      </trkpt>
      <trkpt lat="42.960291" lon="0.204128">
        <ele>1787.7</ele>
        <time>2013-03-31T10:56:08Z</time>
      </trkpt>
      <trkpt lat="42.960300" lon="0.204018">
        <ele>1793.0</ele>
        <time>2013-03-31T10:56:31Z</time>
      </trkpt>
      <trkpt lat="42.960317" lon="0.203947">
        <ele>1797.3</ele>
        <time>2013-03-31T10:57:09Z</time>
      </trkpt>
      <trkpt lat="42.960318" lon="0.203824">
        <ele>1803.6</ele>
        <time>2013-03-31T10:57:40Z</time>
      </trkpt>
      <trkpt lat="42.960315" lon="0.203692">
        <ele>1806.9</ele>
        <time>2013-03-31T10:57:56Z</time>
      </trkpt>
      <trkpt lat="42.960298" lon="0.203565">
        <ele>1809.8</ele>
        <time>2013-03-31T10:58:09Z</time>
      </trkpt>
      <trkpt lat="42.960286" lon="0.203446">
        <ele>1812.2</ele>
        <time>2013-03-31T10:58:23Z</time>
      </trkpt>
      <trkpt lat="42.960274" lon="0.203320">
        <ele>1815.1</ele>
        <time>2013-03-31T10:58:38Z</time>
      </trkpt>
      <trkpt lat="42.960259" lon="0.203210">
        <ele>1817.0</ele>
        <time>2013-03-31T10:58:55Z</time>
      </trkpt>
      <trkpt lat="42.960249" lon="0.203077">
        <ele>1818.9</ele>
        <time>2013-03-31T11:00:15Z</time>
      </trkpt>
      <trkpt lat="42.960204" lon="0.202997">
        <ele>1820.9</ele>
        <time>2013-03-31T11:00:31Z</time>
      </trkpt>
      <trkpt lat="42.960153" lon="0.202904">
        <ele>1822.8</ele>
        <time>2013-03-31T11:00:46Z</time>
      </trkpt>
      <trkpt lat="42.960103" lon="0.202788">
        <ele>1823.3</ele>
        <time>2013-03-31T11:00:58Z</time>
      </trkpt>
      <trkpt lat="42.960045" lon="0.202693">
        <ele>1824.7</ele>
        <time>2013-03-31T11:01:10Z</time>
      </trkpt>
      <trkpt lat="42.959992" lon="0.202595">
        <ele>1826.6</ele>
        <time>2013-03-31T11:01:23Z</time>
      </trkpt>
      <trkpt lat="42.959926" lon="0.202504">
        <ele>1829.1</ele>
        <time>2013-03-31T11:01:36Z</time>
      </trkpt>
      <trkpt lat="42.959866" lon="0.202413">
        <ele>1830.0</ele>
        <time>2013-03-31T11:01:48Z</time>
      </trkpt>
      <trkpt lat="42.959801" lon="0.202331">
        <ele>1832.9</ele>
        <time>2013-03-31T11:02:02Z</time>
      </trkpt>
      <trkpt lat="42.959723" lon="0.202250">
        <ele>1835.3</ele>
        <time>2013-03-31T11:02:16Z</time>
      </trkpt>
      <trkpt lat="42.959660" lon="0.202161">
        <ele>1837.7</ele>
        <time>2013-03-31T11:02:30Z</time>
      </trkpt>
      <trkpt lat="42.959598" lon="0.202078">
        <ele>1840.6</ele>
        <time>2013-03-31T11:02:45Z</time>
      </trkpt>
      <trkpt lat="42.959538" lon="0.201985">
        <ele>1842.0</ele>
        <time>2013-03-31T11:02:59Z</time>
      </trkpt>
      <trkpt lat="42.959462" lon="0.201909">
        <ele>1844.9</ele>
        <time>2013-03-31T11:03:12Z</time>
      </trkpt>
      <trkpt lat="42.959388" lon="0.201832">
        <ele>1847.3</ele>
        <time>2013-03-31T11:03:27Z</time>
      </trkpt>
      <trkpt lat="42.959312" lon="0.201795">
        <ele>1848.8</ele>
        <time>2013-03-31T11:04:23Z</time>
      </trkpt>
      <trkpt lat="42.959212" lon="0.201764">
        <ele>1851.6</ele>
        <time>2013-03-31T11:04:33Z</time>
      </trkpt>
      <trkpt lat="42.959133" lon="0.201673">
        <ele>1853.1</ele>
        <time>2013-03-31T11:05:00Z</time>
      </trkpt>
      <trkpt lat="42.959098" lon="0.201557">
        <ele>1852.1</ele>
        <time>2013-03-31T11:05:11Z</time>
      </trkpt>
      <trkpt lat="42.959056" lon="0.201432">
        <ele>1853.1</ele>
        <time>2013-03-31T11:05:23Z</time>
      </trkpt>
      <trkpt lat="42.959027" lon="0.201307">
        <ele>1853.6</ele>
        <time>2013-03-31T11:05:34Z</time>
      </trkpt>
      <trkpt lat="42.958999" lon="0.201189">
        <ele>1855.0</ele>
        <time>2013-03-31T11:05:45Z</time>
      </trkpt>
      <trkpt lat="42.958970" lon="0.201081">
        <ele>1855.5</ele>
        <time>2013-03-31T11:05:56Z</time>
      </trkpt>
      <trkpt lat="42.958942" lon="0.200967">
        <ele>1857.4</ele>
        <time>2013-03-31T11:06:08Z</time>
      </trkpt>
      <trkpt lat="42.958912" lon="0.200864">
        <ele>1858.4</ele>
        <time>2013-03-31T11:06:19Z</time>
      </trkpt>
      <trkpt lat="42.958892" lon="0.200739">
        <ele>1859.8</ele>
        <time>2013-03-31T11:06:30Z</time>
      </trkpt>
      <trkpt lat="42.958850" lon="0.200628">
        <ele>1860.3</ele>
        <time>2013-03-31T11:06:40Z</time>
      </trkpt>
      <trkpt lat="42.958818" lon="0.200528">
        <ele>1861.7</ele>
        <time>2013-03-31T11:06:54Z</time>
      </trkpt>
      <trkpt lat="42.958777" lon="0.200432">
        <ele>1863.2</ele>
        <time>2013-03-31T11:07:06Z</time>
      </trkpt>
      <trkpt lat="42.958746" lon="0.200317">
        <ele>1864.1</ele>
        <time>2013-03-31T11:07:19Z</time>
      </trkpt>
      <trkpt lat="42.958708" lon="0.200192">
        <ele>1865.1</ele>
        <time>2013-03-31T11:07:30Z</time>
      </trkpt>
      <trkpt lat="42.958671" lon="0.200066">
        <ele>1866.5</ele>
        <time>2013-03-31T11:07:42Z</time>
      </trkpt>
      <trkpt lat="42.958627" lon="0.199956">
        <ele>1867.5</ele>
        <time>2013-03-31T11:07:53Z</time>
      </trkpt>
      <trkpt lat="42.958590" lon="0.199853">
        <ele>1869.4</ele>
        <time>2013-03-31T11:08:05Z</time>
      </trkpt>
      <trkpt lat="42.958591" lon="0.199726">
        <ele>1871.8</ele>
        <time>2013-03-31T11:08:17Z</time>
      </trkpt>
      <trkpt lat="42.958593" lon="0.199601">
        <ele>1872.8</ele>
        <time>2013-03-31T11:08:31Z</time>
      </trkpt>
      <trkpt lat="42.958599" lon="0.199491">
        <ele>1875.2</ele>
        <time>2013-03-31T11:08:45Z</time>
      </trkpt>
      <trkpt lat="42.958635" lon="0.199382">
        <ele>1876.2</ele>
        <time>2013-03-31T11:09:00Z</time>
      </trkpt>
      <trkpt lat="42.958642" lon="0.199261">
        <ele>1878.1</ele>
        <time>2013-03-31T11:09:20Z</time>
      </trkpt>
      <trkpt lat="42.958653" lon="0.199137">
        <ele>1880.0</ele>
        <time>2013-03-31T11:09:35Z</time>
      </trkpt>
      <trkpt lat="42.958689" lon="0.199021">
        <ele>1883.4</ele>
        <time>2013-03-31T11:09:51Z</time>
      </trkpt>
      <trkpt lat="42.958715" lon="0.198899">
        <ele>1885.3</ele>
        <time>2013-03-31T11:10:06Z</time>
      </trkpt>
      <trkpt lat="42.958737" lon="0.198785">
        <ele>1886.7</ele>
        <time>2013-03-31T11:10:20Z</time>
      </trkpt>
      <trkpt lat="42.958739" lon="0.198659">
        <ele>1887.2</ele>
        <time>2013-03-31T11:10:34Z</time>
      </trkpt>
      <trkpt lat="42.958716" lon="0.198537">
        <ele>1887.2</ele>
        <time>2013-03-31T11:10:46Z</time>
      </trkpt>
      <trkpt lat="42.958707" lon="0.198415">
        <ele>1887.2</ele>
        <time>2013-03-31T11:10:59Z</time>
      </trkpt>
      <trkpt lat="42.958707" lon="0.198287">
        <ele>1887.2</ele>
        <time>2013-03-31T11:11:11Z</time>
      </trkpt>
      <trkpt lat="42.958706" lon="0.198164">
        <ele>1886.7</ele>
        <time>2013-03-31T11:11:22Z</time>
      </trkpt>
      <trkpt lat="42.958691" lon="0.198045">
        <ele>1887.2</ele>
        <time>2013-03-31T11:11:50Z</time>
      </trkpt>
      <trkpt lat="42.958693" lon="0.197916">
        <ele>1889.1</ele>
        <time>2013-03-31T11:12:08Z</time>
      </trkpt>
      <trkpt lat="42.958736" lon="0.197815">
        <ele>1891.1</ele>
        <time>2013-03-31T11:12:28Z</time>
      </trkpt>
      <trkpt lat="42.958756" lon="0.197696">
        <ele>1893.4</ele>
        <time>2013-03-31T11:12:45Z</time>
        <name>Soum de Hailla</name>
      </trkpt>
      <trkpt lat="42.958754" lon="0.197693">
        <ele>1893.4</ele>
        <time>2013-03-31T11:19:52Z</time>
      </trkpt>
      <trkpt lat="42.958762" lon="0.197676">
        <ele>1895.9</ele>
        <time>2013-03-31T12:06:06Z</time>
      </trkpt>
      <trkpt lat="42.958755" lon="0.197722">
        <ele>1895.9</ele>
        <time>2013-03-31T12:07:54Z</time>
      </trkpt>
      <trkpt lat="42.958805" lon="0.197779">
        <ele>1893.9</ele>
        <time>2013-03-31T12:08:10Z</time>
      </trkpt>
      <trkpt lat="42.958825" lon="0.197852">
        <ele>1890.1</ele>
        <time>2013-03-31T12:08:20Z</time>
      </trkpt>
      <trkpt lat="42.958762" lon="0.197939">
        <ele>1890.1</ele>
        <time>2013-03-31T12:08:31Z</time>
      </trkpt>
      <trkpt lat="42.958709" lon="0.198033">
        <ele>1888.7</ele>
        <time>2013-03-31T12:08:39Z</time>
      </trkpt>
      <trkpt lat="42.958705" lon="0.198163">
        <ele>1888.2</ele>
        <time>2013-03-31T12:08:49Z</time>
      </trkpt>
      <trkpt lat="42.958693" lon="0.198286">
        <ele>1888.7</ele>
        <time>2013-03-31T12:09:02Z</time>
      </trkpt>
      <trkpt lat="42.958706" lon="0.198419">
        <ele>1887.7</ele>
        <time>2013-03-31T12:09:11Z</time>
      </trkpt>
      <trkpt lat="42.958714" lon="0.198545">
        <ele>1888.2</ele>
        <time>2013-03-31T12:09:20Z</time>
      </trkpt>
      <trkpt lat="42.958709" lon="0.198674">
        <ele>1888.7</ele>
        <time>2013-03-31T12:09:30Z</time>
      </trkpt>
      <trkpt lat="42.958708" lon="0.198800">
        <ele>1887.2</ele>
        <time>2013-03-31T12:09:40Z</time>
      </trkpt>
      <trkpt lat="42.958669" lon="0.198916">
        <ele>1886.2</ele>
        <time>2013-03-31T12:09:50Z</time>
      </trkpt>
      <trkpt lat="42.958603" lon="0.199026">
        <ele>1884.3</ele>
        <time>2013-03-31T12:10:01Z</time>
      </trkpt>
      <trkpt lat="42.958620" lon="0.199144">
        <ele>1882.4</ele>
        <time>2013-03-31T12:10:12Z</time>
      </trkpt>
      <trkpt lat="42.958669" lon="0.199236">
        <ele>1879.5</ele>
        <time>2013-03-31T12:10:23Z</time>
      </trkpt>
      <trkpt lat="42.958658" lon="0.199363">
        <ele>1877.1</ele>
        <time>2013-03-31T12:10:33Z</time>
      </trkpt>
      <trkpt lat="42.958647" lon="0.199490">
        <ele>1875.7</ele>
        <time>2013-03-31T12:10:43Z</time>
      </trkpt>
      <trkpt lat="42.958650" lon="0.199621">
        <ele>1873.8</ele>
        <time>2013-03-31T12:10:52Z</time>
      </trkpt>
      <trkpt lat="42.958679" lon="0.199736">
        <ele>1871.3</ele>
        <time>2013-03-31T12:11:02Z</time>
      </trkpt>
      <trkpt lat="42.958744" lon="0.199817">
        <ele>1868.0</ele>
        <time>2013-03-31T12:11:12Z</time>
      </trkpt>
      <trkpt lat="42.958790" lon="0.199915">
        <ele>1866.5</ele>
        <time>2013-03-31T12:11:23Z</time>
      </trkpt>
      <trkpt lat="42.958830" lon="0.200032">
        <ele>1865.6</ele>
        <time>2013-03-31T12:11:32Z</time>
      </trkpt>
      <trkpt lat="42.958862" lon="0.200154">
        <ele>1864.6</ele>
        <time>2013-03-31T12:11:41Z</time>
      </trkpt>
      <trkpt lat="42.958884" lon="0.200281">
        <ele>1862.2</ele>
        <time>2013-03-31T12:11:50Z</time>
      </trkpt>
      <trkpt lat="42.958909" lon="0.200405">
        <ele>1861.2</ele>
        <time>2013-03-31T12:11:59Z</time>
      </trkpt>
      <trkpt lat="42.958941" lon="0.200535">
        <ele>1860.3</ele>
        <time>2013-03-31T12:12:08Z</time>
      </trkpt>
      <trkpt lat="42.958976" lon="0.200661">
        <ele>1858.8</ele>
        <time>2013-03-31T12:12:17Z</time>
      </trkpt>
      <trkpt lat="42.958997" lon="0.200781">
        <ele>1857.9</ele>
        <time>2013-03-31T12:12:25Z</time>
      </trkpt>
      <trkpt lat="42.959014" lon="0.200898">
        <ele>1856.9</ele>
        <time>2013-03-31T12:12:34Z</time>
      </trkpt>
      <trkpt lat="42.959064" lon="0.201017">
        <ele>1855.5</ele>
        <time>2013-03-31T12:12:43Z</time>
      </trkpt>
      <trkpt lat="42.959092" lon="0.201163">
        <ele>1854.5</ele>
        <time>2013-03-31T12:12:52Z</time>
      </trkpt>
      <trkpt lat="42.959107" lon="0.201284">
        <ele>1853.1</ele>
        <time>2013-03-31T12:12:59Z</time>
      </trkpt>
      <trkpt lat="42.959119" lon="0.201400">
        <ele>1852.6</ele>
        <time>2013-03-31T12:13:07Z</time>
      </trkpt>
      <trkpt lat="42.959144" lon="0.201529">
        <ele>1851.2</ele>
        <time>2013-03-31T12:13:16Z</time>
      </trkpt>
      <trkpt lat="42.959187" lon="0.201647">
        <ele>1850.7</ele>
        <time>2013-03-31T12:13:25Z</time>
      </trkpt>
      <trkpt lat="42.959231" lon="0.201764">
        <ele>1849.7</ele>
        <time>2013-03-31T12:13:34Z</time>
      </trkpt>
      <trkpt lat="42.959289" lon="0.201866">
        <ele>1848.8</ele>
        <time>2013-03-31T12:13:45Z</time>
      </trkpt>
      <trkpt lat="42.959344" lon="0.201974">
        <ele>1847.8</ele>
        <time>2013-03-31T12:13:56Z</time>
      </trkpt>
      <trkpt lat="42.959408" lon="0.202077">
        <ele>1846.3</ele>
        <time>2013-03-31T12:14:07Z</time>
      </trkpt>
      <trkpt lat="42.959476" lon="0.202135">
        <ele>1843.9</ele>
        <time>2013-03-31T12:14:18Z</time>
      </trkpt>
      <trkpt lat="42.959541" lon="0.202229">
        <ele>1841.1</ele>
        <time>2013-03-31T12:14:28Z</time>
      </trkpt>
      <trkpt lat="42.959614" lon="0.202314">
        <ele>1838.7</ele>
        <time>2013-03-31T12:14:39Z</time>
      </trkpt>
      <trkpt lat="42.959702" lon="0.202386">
        <ele>1835.8</ele>
        <time>2013-03-31T12:14:51Z</time>
      </trkpt>
      <trkpt lat="42.959791" lon="0.202443">
        <ele>1832.9</ele>
        <time>2013-03-31T12:15:03Z</time>
      </trkpt>
      <trkpt lat="42.959886" lon="0.202498">
        <ele>1829.5</ele>
        <time>2013-03-31T12:15:16Z</time>
      </trkpt>
      <trkpt lat="42.959966" lon="0.202567">
        <ele>1827.1</ele>
        <time>2013-03-31T12:15:27Z</time>
      </trkpt>
      <trkpt lat="42.960034" lon="0.202652">
        <ele>1825.2</ele>
        <time>2013-03-31T12:15:38Z</time>
      </trkpt>
      <trkpt lat="42.960102" lon="0.202747">
        <ele>1823.3</ele>
        <time>2013-03-31T12:15:48Z</time>
      </trkpt>
      <trkpt lat="42.960161" lon="0.202848">
        <ele>1821.3</ele>
        <time>2013-03-31T12:15:58Z</time>
      </trkpt>
      <trkpt lat="42.960204" lon="0.202948">
        <ele>1819.9</ele>
        <time>2013-03-31T12:16:08Z</time>
      </trkpt>
      <trkpt lat="42.960281" lon="0.203026">
        <ele>1818.5</ele>
        <time>2013-03-31T12:16:19Z</time>
      </trkpt>
      <trkpt lat="42.960355" lon="0.203097">
        <ele>1815.6</ele>
        <time>2013-03-31T12:16:31Z</time>
      </trkpt>
      <trkpt lat="42.960425" lon="0.203188">
        <ele>1812.7</ele>
        <time>2013-03-31T12:16:43Z</time>
      </trkpt>
      <trkpt lat="42.960508" lon="0.203242">
        <ele>1808.9</ele>
        <time>2013-03-31T12:16:55Z</time>
      </trkpt>
      <trkpt lat="42.960573" lon="0.203321">
        <ele>1804.5</ele>
        <time>2013-03-31T12:17:07Z</time>
      </trkpt>
      <trkpt lat="42.960644" lon="0.203404">
        <ele>1800.7</ele>
        <time>2013-03-31T12:17:20Z</time>
      </trkpt>
      <trkpt lat="42.960732" lon="0.203407">
        <ele>1796.4</ele>
        <time>2013-03-31T12:17:33Z</time>
      </trkpt>
      <trkpt lat="42.960825" lon="0.203370">
        <ele>1793.5</ele>
        <time>2013-03-31T12:17:44Z</time>
      </trkpt>
      <trkpt lat="42.960925" lon="0.203370">
        <ele>1789.6</ele>
        <time>2013-03-31T12:17:57Z</time>
      </trkpt>
      <trkpt lat="42.961013" lon="0.203369">
        <ele>1785.8</ele>
        <time>2013-03-31T12:18:09Z</time>
      </trkpt>
      <trkpt lat="42.961097" lon="0.203378">
        <ele>1782.9</ele>
        <time>2013-03-31T12:18:20Z</time>
      </trkpt>
      <trkpt lat="42.961193" lon="0.203379">
        <ele>1779.5</ele>
        <time>2013-03-31T12:18:32Z</time>
      </trkpt>
      <trkpt lat="42.961287" lon="0.203388">
        <ele>1776.7</ele>
        <time>2013-03-31T12:18:43Z</time>
      </trkpt>
      <trkpt lat="42.961373" lon="0.203414">
        <ele>1774.2</ele>
        <time>2013-03-31T12:18:54Z</time>
      </trkpt>
      <trkpt lat="42.961460" lon="0.203448">
        <ele>1771.8</ele>
        <time>2013-03-31T12:19:05Z</time>
      </trkpt>
      <trkpt lat="42.961546" lon="0.203476">
        <ele>1769.4</ele>
        <time>2013-03-31T12:19:16Z</time>
      </trkpt>
      <trkpt lat="42.961633" lon="0.203513">
        <ele>1766.1</ele>
        <time>2013-03-31T12:19:26Z</time>
      </trkpt>
      <trkpt lat="42.961719" lon="0.203556">
        <ele>1763.7</ele>
        <time>2013-03-31T12:19:36Z</time>
      </trkpt>
      <trkpt lat="42.961814" lon="0.203584">
        <ele>1761.8</ele>
        <time>2013-03-31T12:19:46Z</time>
      </trkpt>
      <trkpt lat="42.961877" lon="0.203618">
        <ele>1760.8</ele>
        <time>2013-03-31T12:21:18Z</time>
      </trkpt>
      <trkpt lat="42.961968" lon="0.203657">
        <ele>1757.9</ele>
        <time>2013-03-31T12:21:27Z</time>
      </trkpt>
      <trkpt lat="42.962051" lon="0.203713">
        <ele>1755.5</ele>
        <time>2013-03-31T12:21:35Z</time>
      </trkpt>
      <trkpt lat="42.962131" lon="0.203757">
        <ele>1752.6</ele>
        <time>2013-03-31T12:21:45Z</time>
      </trkpt>
      <trkpt lat="42.962209" lon="0.203740">
        <ele>1750.2</ele>
        <time>2013-03-31T12:22:12Z</time>
      </trkpt>
      <trkpt lat="42.962303" lon="0.203778">
        <ele>1745.9</ele>
        <time>2013-03-31T12:22:24Z</time>
      </trkpt>
      <trkpt lat="42.962398" lon="0.203811">
        <ele>1742.5</ele>
        <time>2013-03-31T12:22:35Z</time>
      </trkpt>
      <trkpt lat="42.962475" lon="0.203886">
        <ele>1738.2</ele>
        <time>2013-03-31T12:22:45Z</time>
      </trkpt>
      <trkpt lat="42.962551" lon="0.203944">
        <ele>1734.8</ele>
        <time>2013-03-31T12:22:56Z</time>
      </trkpt>
      <trkpt lat="42.962642" lon="0.203978">
        <ele>1730.5</ele>
        <time>2013-03-31T12:23:07Z</time>
      </trkpt>
      <trkpt lat="42.962705" lon="0.204019">
        <ele>1728.1</ele>
        <time>2013-03-31T12:24:57Z</time>
      </trkpt>
      <trkpt lat="42.962793" lon="0.204037">
        <ele>1725.7</ele>
        <time>2013-03-31T12:26:04Z</time>
      </trkpt>
      <trkpt lat="42.962882" lon="0.204081">
        <ele>1721.9</ele>
        <time>2013-03-31T12:26:16Z</time>
      </trkpt>
      <trkpt lat="42.962971" lon="0.204096">
        <ele>1719.9</ele>
        <time>2013-03-31T12:26:26Z</time>
      </trkpt>
      <trkpt lat="42.963071" lon="0.204084">
        <ele>1716.6</ele>
        <time>2013-03-31T12:26:38Z</time>
      </trkpt>
      <trkpt lat="42.963170" lon="0.204088">
        <ele>1713.7</ele>
        <time>2013-03-31T12:26:49Z</time>
      </trkpt>
      <trkpt lat="42.963255" lon="0.204106">
        <ele>1711.3</ele>
        <time>2013-03-31T12:27:00Z</time>
      </trkpt>
      <trkpt lat="42.963341" lon="0.204150">
        <ele>1707.4</ele>
        <time>2013-03-31T12:27:12Z</time>
      </trkpt>
      <trkpt lat="42.963432" lon="0.204163">
        <ele>1704.1</ele>
        <time>2013-03-31T12:27:22Z</time>
      </trkpt>
      <trkpt lat="42.963530" lon="0.204180">
        <ele>1701.7</ele>
        <time>2013-03-31T12:27:30Z</time>
      </trkpt>
      <trkpt lat="42.963621" lon="0.204184">
        <ele>1697.3</ele>
        <time>2013-03-31T12:27:40Z</time>
      </trkpt>
      <trkpt lat="42.963707" lon="0.204204">
        <ele>1695.9</ele>
        <time>2013-03-31T12:27:48Z</time>
      </trkpt>
      <trkpt lat="42.963766" lon="0.204206">
        <ele>1696.4</ele>
        <time>2013-03-31T12:28:36Z</time>
      </trkpt>
      <trkpt lat="42.963856" lon="0.204245">
        <ele>1693.0</ele>
        <time>2013-03-31T12:28:46Z</time>
      </trkpt>
      <trkpt lat="42.963941" lon="0.204252">
        <ele>1692.5</ele>
        <time>2013-03-31T12:28:56Z</time>
      </trkpt>
      <trkpt lat="42.964030" lon="0.204275">
        <ele>1687.7</ele>
        <time>2013-03-31T12:29:08Z</time>
      </trkpt>
      <trkpt lat="42.964107" lon="0.204304">
        <ele>1684.8</ele>
        <time>2013-03-31T12:29:20Z</time>
      </trkpt>
      <trkpt lat="42.964208" lon="0.204324">
        <ele>1681.5</ele>
        <time>2013-03-31T12:29:30Z</time>
      </trkpt>
      <trkpt lat="42.964297" lon="0.204369">
        <ele>1678.1</ele>
        <time>2013-03-31T12:29:41Z</time>
      </trkpt>
      <trkpt lat="42.964368" lon="0.204439">
        <ele>1672.8</ele>
        <time>2013-03-31T12:29:53Z</time>
      </trkpt>
      <trkpt lat="42.964420" lon="0.204518">
        <ele>1669.5</ele>
        <time>2013-03-31T12:30:11Z</time>
      </trkpt>
      <trkpt lat="42.964478" lon="0.204610">
        <ele>1667.5</ele>
        <time>2013-03-31T12:30:25Z</time>
      </trkpt>
      <trkpt lat="42.964544" lon="0.204540">
        <ele>1663.2</ele>
        <time>2013-03-31T12:31:04Z</time>
      </trkpt>
      <trkpt lat="42.964587" lon="0.204637">
        <ele>1659.4</ele>
        <time>2013-03-31T12:31:17Z</time>
      </trkpt>
      <trkpt lat="42.964645" lon="0.204696">
        <ele>1654.6</ele>
        <time>2013-03-31T12:31:38Z</time>
      </trkpt>
      <trkpt lat="42.964670" lon="0.204796">
        <ele>1649.3</ele>
        <time>2013-03-31T12:31:50Z</time>
      </trkpt>
      <trkpt lat="42.964726" lon="0.204868">
        <ele>1644.5</ele>
        <time>2013-03-31T12:32:03Z</time>
      </trkpt>
      <trkpt lat="42.964771" lon="0.204933">
        <ele>1638.2</ele>
        <time>2013-03-31T12:32:17Z</time>
      </trkpt>
      <trkpt lat="42.964832" lon="0.204985">
        <ele>1632.9</ele>
        <time>2013-03-31T12:32:32Z</time>
      </trkpt>
      <trkpt lat="42.964906" lon="0.205049">
        <ele>1630.1</ele>
        <time>2013-03-31T12:32:42Z</time>
      </trkpt>
      <trkpt lat="42.964967" lon="0.205123">
        <ele>1624.8</ele>
        <time>2013-03-31T12:32:52Z</time>
      </trkpt>
      <trkpt lat="42.965033" lon="0.205201">
        <ele>1620.4</ele>
        <time>2013-03-31T12:33:02Z</time>
      </trkpt>
      <trkpt lat="42.965107" lon="0.205250">
        <ele>1614.2</ele>
        <time>2013-03-31T12:33:11Z</time>
      </trkpt>
      <trkpt lat="42.965167" lon="0.205341">
        <ele>1609.9</ele>
        <time>2013-03-31T12:33:20Z</time>
      </trkpt>
      <trkpt lat="42.965185" lon="0.205437">
        <ele>1607.5</ele>
        <time>2013-03-31T12:33:57Z</time>
      </trkpt>
      <trkpt lat="42.965227" lon="0.205550">
        <ele>1604.6</ele>
        <time>2013-03-31T12:34:06Z</time>
      </trkpt>
      <trkpt lat="42.965273" lon="0.205648">
        <ele>1601.2</ele>
        <time>2013-03-31T12:34:16Z</time>
      </trkpt>
      <trkpt lat="42.965342" lon="0.205716">
        <ele>1596.9</ele>
        <time>2013-03-31T12:34:25Z</time>
      </trkpt>
      <trkpt lat="42.965386" lon="0.205815">
        <ele>1594.0</ele>
        <time>2013-03-31T12:34:34Z</time>
      </trkpt>
      <trkpt lat="42.965438" lon="0.205917">
        <ele>1590.6</ele>
        <time>2013-03-31T12:34:44Z</time>
      </trkpt>
      <trkpt lat="42.965503" lon="0.206002">
        <ele>1586.8</ele>
        <time>2013-03-31T12:34:54Z</time>
      </trkpt>
      <trkpt lat="42.965548" lon="0.206122">
        <ele>1582.5</ele>
        <time>2013-03-31T12:35:05Z</time>
      </trkpt>
      <trkpt lat="42.965613" lon="0.206191">
        <ele>1577.7</ele>
        <time>2013-03-31T12:35:18Z</time>
      </trkpt>
      <trkpt lat="42.965667" lon="0.206298">
        <ele>1574.8</ele>
        <time>2013-03-31T12:35:29Z</time>
      </trkpt>
      <trkpt lat="42.965735" lon="0.206370">
        <ele>1570.9</ele>
        <time>2013-03-31T12:35:40Z</time>
      </trkpt>
      <trkpt lat="42.965755" lon="0.206429">
        <ele>1570.9</ele>
        <time>2013-03-31T12:39:47Z</time>
      </trkpt>
      <trkpt lat="42.965822" lon="0.206491">
        <ele>1568.5</ele>
        <time>2013-03-31T12:40:01Z</time>
      </trkpt>
      <trkpt lat="42.965898" lon="0.206562">
        <ele>1565.2</ele>
        <time>2013-03-31T12:40:11Z</time>
      </trkpt>
      <trkpt lat="42.965973" lon="0.206622">
        <ele>1563.7</ele>
        <time>2013-03-31T12:40:21Z</time>
      </trkpt>
      <trkpt lat="42.966050" lon="0.206696">
        <ele>1561.3</ele>
        <time>2013-03-31T12:40:30Z</time>
      </trkpt>
      <trkpt lat="42.966133" lon="0.206761">
        <ele>1559.4</ele>
        <time>2013-03-31T12:40:39Z</time>
      </trkpt>
      <trkpt lat="42.966224" lon="0.206818">
        <ele>1558.4</ele>
        <time>2013-03-31T12:40:47Z</time>
      </trkpt>
      <trkpt lat="42.966320" lon="0.206856">
        <ele>1558.9</ele>
        <time>2013-03-31T12:40:56Z</time>
      </trkpt>
      <trkpt lat="42.966413" lon="0.206861">
        <ele>1557.0</ele>
        <time>2013-03-31T12:41:05Z</time>
      </trkpt>
      <trkpt lat="42.966489" lon="0.206934">
        <ele>1553.6</ele>
        <time>2013-03-31T12:41:13Z</time>
      </trkpt>
      <trkpt lat="42.966579" lon="0.207013">
        <ele>1551.7</ele>
        <time>2013-03-31T12:41:21Z</time>
      </trkpt>
      <trkpt lat="42.966663" lon="0.207087">
        <ele>1550.7</ele>
        <time>2013-03-31T12:41:29Z</time>
      </trkpt>
      <trkpt lat="42.966745" lon="0.207144">
        <ele>1549.8</ele>
        <time>2013-03-31T12:41:37Z</time>
      </trkpt>
      <trkpt lat="42.966829" lon="0.207208">
        <ele>1546.9</ele>
        <time>2013-03-31T12:41:45Z</time>
      </trkpt>
      <trkpt lat="42.966910" lon="0.207285">
        <ele>1546.4</ele>
        <time>2013-03-31T12:41:53Z</time>
      </trkpt>
      <trkpt lat="42.966990" lon="0.207367">
        <ele>1545.0</ele>
        <time>2013-03-31T12:42:01Z</time>
      </trkpt>
      <trkpt lat="42.967066" lon="0.207436">
        <ele>1543.5</ele>
        <time>2013-03-31T12:42:09Z</time>
      </trkpt>
      <trkpt lat="42.967142" lon="0.207524">
        <ele>1541.6</ele>
        <time>2013-03-31T12:42:18Z</time>
      </trkpt>
      <trkpt lat="42.967233" lon="0.207588">
        <ele>1539.2</ele>
        <time>2013-03-31T12:42:27Z</time>
      </trkpt>
      <trkpt lat="42.967318" lon="0.207641">
        <ele>1536.8</ele>
        <time>2013-03-31T12:42:36Z</time>
      </trkpt>
      <trkpt lat="42.967397" lon="0.207674">
        <ele>1534.9</ele>
        <time>2013-03-31T12:42:45Z</time>
      </trkpt>
      <trkpt lat="42.967450" lon="0.207782">
        <ele>1531.5</ele>
        <time>2013-03-31T12:42:55Z</time>
      </trkpt>
      <trkpt lat="42.967485" lon="0.207893">
        <ele>1527.7</ele>
        <time>2013-03-31T12:43:06Z</time>
      </trkpt>
      <trkpt lat="42.967541" lon="0.207974">
        <ele>1526.2</ele>
        <time>2013-03-31T12:43:16Z</time>
      </trkpt>
      <trkpt lat="42.967566" lon="0.208098">
        <ele>1524.8</ele>
        <time>2013-03-31T12:43:25Z</time>
      </trkpt>
      <trkpt lat="42.967578" lon="0.208231">
        <ele>1524.3</ele>
        <time>2013-03-31T12:43:33Z</time>
      </trkpt>
      <trkpt lat="42.967596" lon="0.208359">
        <ele>1524.3</ele>
        <time>2013-03-31T12:43:42Z</time>
      </trkpt>
      <trkpt lat="42.967633" lon="0.208480">
        <ele>1523.3</ele>
        <time>2013-03-31T12:43:51Z</time>
      </trkpt>
      <trkpt lat="42.967684" lon="0.208582">
        <ele>1521.4</ele>
        <time>2013-03-31T12:44:01Z</time>
      </trkpt>
      <trkpt lat="42.967753" lon="0.208658">
        <ele>1519.0</ele>
        <time>2013-03-31T12:44:10Z</time>
      </trkpt>
      <trkpt lat="42.967825" lon="0.208741">
        <ele>1516.6</ele>
        <time>2013-03-31T12:44:20Z</time>
      </trkpt>
      <trkpt lat="42.967905" lon="0.208807">
        <ele>1514.2</ele>
        <time>2013-03-31T12:44:29Z</time>
      </trkpt>
      <trkpt lat="42.967987" lon="0.208859">
        <ele>1511.8</ele>
        <time>2013-03-31T12:44:38Z</time>
      </trkpt>
      <trkpt lat="42.968076" lon="0.208879">
        <ele>1509.4</ele>
        <time>2013-03-31T12:44:47Z</time>
      </trkpt>
      <trkpt lat="42.968168" lon="0.208877">
        <ele>1506.0</ele>
        <time>2013-03-31T12:44:55Z</time>
      </trkpt>
      <trkpt lat="42.968260" lon="0.208852">
        <ele>1504.6</ele>
        <time>2013-03-31T12:45:06Z</time>
      </trkpt>
      <trkpt lat="42.968353" lon="0.208848">
        <ele>1500.3</ele>
        <time>2013-03-31T12:45:17Z</time>
      </trkpt>
      <trkpt lat="42.968442" lon="0.208815">
        <ele>1499.3</ele>
        <time>2013-03-31T12:45:27Z</time>
      </trkpt>
      <trkpt lat="42.968525" lon="0.208758">
        <ele>1497.4</ele>
        <time>2013-03-31T12:45:37Z</time>
      </trkpt>
      <trkpt lat="42.968606" lon="0.208673">
        <ele>1495.9</ele>
        <time>2013-03-31T12:45:48Z</time>
      </trkpt>
      <trkpt lat="42.968681" lon="0.208610">
        <ele>1492.1</ele>
        <time>2013-03-31T12:45:57Z</time>
      </trkpt>
      <trkpt lat="42.968763" lon="0.208533">
        <ele>1489.7</ele>
        <time>2013-03-31T12:46:06Z</time>
      </trkpt>
      <trkpt lat="42.968838" lon="0.208463">
        <ele>1487.3</ele>
        <time>2013-03-31T12:46:16Z</time>
      </trkpt>
      <trkpt lat="42.968917" lon="0.208405">
        <ele>1484.4</ele>
        <time>2013-03-31T12:46:26Z</time>
      </trkpt>
      <trkpt lat="42.969005" lon="0.208338">
        <ele>1481.5</ele>
        <time>2013-03-31T12:46:36Z</time>
      </trkpt>
      <trkpt lat="42.969095" lon="0.208284">
        <ele>1478.2</ele>
        <time>2013-03-31T12:46:45Z</time>
      </trkpt>
      <trkpt lat="42.969182" lon="0.208292">
        <ele>1476.2</ele>
        <time>2013-03-31T12:46:54Z</time>
      </trkpt>
      <trkpt lat="42.969276" lon="0.208249">
        <ele>1472.9</ele>
        <time>2013-03-31T12:47:03Z</time>
      </trkpt>
      <trkpt lat="42.969378" lon="0.208223">
        <ele>1469.5</ele>
        <time>2013-03-31T12:47:13Z</time>
      </trkpt>
      <trkpt lat="42.969469" lon="0.208215">
        <ele>1466.6</ele>
        <time>2013-03-31T12:47:22Z</time>
      </trkpt>
      <trkpt lat="42.969557" lon="0.208224">
        <ele>1464.2</ele>
        <time>2013-03-31T12:47:31Z</time>
      </trkpt>
      <trkpt lat="42.969648" lon="0.208242">
        <ele>1460.9</ele>
        <time>2013-03-31T12:47:41Z</time>
      </trkpt>
      <trkpt lat="42.969740" lon="0.208212">
        <ele>1457.5</ele>
        <time>2013-03-31T12:47:51Z</time>
      </trkpt>
      <trkpt lat="42.969832" lon="0.208190">
        <ele>1454.1</ele>
        <time>2013-03-31T12:48:01Z</time>
      </trkpt>
      <trkpt lat="42.969928" lon="0.208182">
        <ele>1449.8</ele>
        <time>2013-03-31T12:48:11Z</time>
      </trkpt>
      <trkpt lat="42.970013" lon="0.208156">
        <ele>1446.9</ele>
        <time>2013-03-31T12:48:20Z</time>
      </trkpt>
      <trkpt lat="42.970109" lon="0.208145">
        <ele>1442.6</ele>
        <time>2013-03-31T12:48:30Z</time>
      </trkpt>
      <trkpt lat="42.970208" lon="0.208106">
        <ele>1439.2</ele>
        <time>2013-03-31T12:48:39Z</time>
      </trkpt>
      <trkpt lat="42.970298" lon="0.208081">
        <ele>1434.9</ele>
        <time>2013-03-31T12:48:47Z</time>
      </trkpt>
      <trkpt lat="42.970403" lon="0.208077">
        <ele>1430.6</ele>
        <time>2013-03-31T12:48:56Z</time>
      </trkpt>
      <trkpt lat="42.970499" lon="0.208102">
        <ele>1428.2</ele>
        <time>2013-03-31T12:49:04Z</time>
      </trkpt>
      <trkpt lat="42.970584" lon="0.208137">
        <ele>1425.8</ele>
        <time>2013-03-31T12:49:11Z</time>
      </trkpt>
      <trkpt lat="42.970689" lon="0.208158">
        <ele>1422.9</ele>
        <time>2013-03-31T12:49:19Z</time>
      </trkpt>
      <trkpt lat="42.970789" lon="0.208185">
        <ele>1421.0</ele>
        <time>2013-03-31T12:49:27Z</time>
      </trkpt>
      <trkpt lat="42.970878" lon="0.208208">
        <ele>1419.5</ele>
        <time>2013-03-31T12:49:35Z</time>
      </trkpt>
      <trkpt lat="42.970973" lon="0.208220">
        <ele>1415.7</ele>
        <time>2013-03-31T12:49:44Z</time>
      </trkpt>
      <trkpt lat="42.971074" lon="0.208227">
        <ele>1414.7</ele>
        <time>2013-03-31T12:49:52Z</time>
      </trkpt>
      <trkpt lat="42.971172" lon="0.208272">
        <ele>1412.8</ele>
        <time>2013-03-31T12:49:59Z</time>
      </trkpt>
      <trkpt lat="42.971262" lon="0.208296">
        <ele>1410.9</ele>
        <time>2013-03-31T12:50:06Z</time>
      </trkpt>
      <trkpt lat="42.971352" lon="0.208317">
        <ele>1409.9</ele>
        <time>2013-03-31T12:50:13Z</time>
      </trkpt>
      <trkpt lat="42.971456" lon="0.208338">
        <ele>1410.4</ele>
        <time>2013-03-31T12:50:21Z</time>
      </trkpt>
      <trkpt lat="42.971561" lon="0.208360">
        <ele>1409.4</ele>
        <time>2013-03-31T12:50:29Z</time>
      </trkpt>
      <trkpt lat="42.971649" lon="0.208383">
        <ele>1407.5</ele>
        <time>2013-03-31T12:50:36Z</time>
      </trkpt>
      <trkpt lat="42.971743" lon="0.208406">
        <ele>1406.6</ele>
        <time>2013-03-31T12:50:43Z</time>
      </trkpt>
      <trkpt lat="42.971827" lon="0.208455">
        <ele>1405.1</ele>
        <time>2013-03-31T12:50:50Z</time>
      </trkpt>
      <trkpt lat="42.971908" lon="0.208527">
        <ele>1404.6</ele>
        <time>2013-03-31T12:50:58Z</time>
      </trkpt>
      <trkpt lat="42.971999" lon="0.208578">
        <ele>1402.2</ele>
        <time>2013-03-31T12:51:06Z</time>
      </trkpt>
      <trkpt lat="42.972090" lon="0.208606">
        <ele>1399.8</ele>
        <time>2013-03-31T12:51:13Z</time>
      </trkpt>
      <trkpt lat="42.972166" lon="0.208653">
        <ele>1397.4</ele>
        <time>2013-03-31T12:51:20Z</time>
      </trkpt>
      <trkpt lat="42.972257" lon="0.208714">
        <ele>1396.0</ele>
        <time>2013-03-31T12:51:28Z</time>
      </trkpt>
      <trkpt lat="42.972329" lon="0.208777">
        <ele>1393.1</ele>
        <time>2013-03-31T12:51:36Z</time>
      </trkpt>
      <trkpt lat="42.972398" lon="0.208851">
        <ele>1390.7</ele>
        <time>2013-03-31T12:51:44Z</time>
      </trkpt>
      <trkpt lat="42.972473" lon="0.208914">
        <ele>1387.8</ele>
        <time>2013-03-31T12:51:52Z</time>
      </trkpt>
      <trkpt lat="42.972533" lon="0.209008">
        <ele>1384.9</ele>
        <time>2013-03-31T12:52:00Z</time>
      </trkpt>
      <trkpt lat="42.972585" lon="0.209126">
        <ele>1382.0</ele>
        <time>2013-03-31T12:52:08Z</time>
      </trkpt>
      <trkpt lat="42.972619" lon="0.209240">
        <ele>1380.1</ele>
        <time>2013-03-31T12:52:15Z</time>
      </trkpt>
      <trkpt lat="42.972657" lon="0.209367">
        <ele>1378.2</ele>
        <time>2013-03-31T12:52:23Z</time>
      </trkpt>
      <trkpt lat="42.972705" lon="0.209481">
        <ele>1376.3</ele>
        <time>2013-03-31T12:52:31Z</time>
      </trkpt>
      <trkpt lat="42.972781" lon="0.209578">
        <ele>1373.9</ele>
        <time>2013-03-31T12:52:39Z</time>
      </trkpt>
      <trkpt lat="42.972857" lon="0.209653">
        <ele>1371.5</ele>
        <time>2013-03-31T12:52:46Z</time>
      </trkpt>
      <trkpt lat="42.972923" lon="0.209745">
        <ele>1370.5</ele>
        <time>2013-03-31T12:52:53Z</time>
      </trkpt>
      <trkpt lat="42.973000" lon="0.209837">
        <ele>1367.6</ele>
        <time>2013-03-31T12:53:01Z</time>
      </trkpt>
      <trkpt lat="42.973072" lon="0.209920">
        <ele>1366.2</ele>
        <time>2013-03-31T12:53:08Z</time>
      </trkpt>
      <trkpt lat="42.973159" lon="0.209978">
        <ele>1364.7</ele>
        <time>2013-03-31T12:53:16Z</time>
      </trkpt>
      <trkpt lat="42.973253" lon="0.209999">
        <ele>1363.8</ele>
        <time>2013-03-31T12:53:24Z</time>
      </trkpt>
      <trkpt lat="42.973329" lon="0.210075">
        <ele>1363.3</ele>
        <time>2013-03-31T12:53:32Z</time>
      </trkpt>
      <trkpt lat="42.973388" lon="0.210189">
        <ele>1363.8</ele>
        <time>2013-03-31T12:53:42Z</time>
      </trkpt>
      <trkpt lat="42.973451" lon="0.210296">
        <ele>1362.8</ele>
        <time>2013-03-31T12:53:50Z</time>
      </trkpt>
      <trkpt lat="42.973492" lon="0.210402">
        <ele>1361.4</ele>
        <time>2013-03-31T12:53:58Z</time>
      </trkpt>
      <trkpt lat="42.973532" lon="0.210529">
        <ele>1359.4</ele>
        <time>2013-03-31T12:54:06Z</time>
      </trkpt>
      <trkpt lat="42.973579" lon="0.210641">
        <ele>1357.5</ele>
        <time>2013-03-31T12:54:14Z</time>
      </trkpt>
      <trkpt lat="42.973639" lon="0.210752">
        <ele>1355.1</ele>
        <time>2013-03-31T12:54:23Z</time>
      </trkpt>
      <trkpt lat="42.973671" lon="0.210879">
        <ele>1354.2</ele>
        <time>2013-03-31T12:54:31Z</time>
      </trkpt>
      <trkpt lat="42.973717" lon="0.210991">
        <ele>1352.7</ele>
        <time>2013-03-31T12:54:39Z</time>
      </trkpt>
      <trkpt lat="42.973774" lon="0.211103">
        <ele>1351.8</ele>
        <time>2013-03-31T12:54:47Z</time>
      </trkpt>
      <trkpt lat="42.973830" lon="0.211220">
        <ele>1351.8</ele>
        <time>2013-03-31T12:54:55Z</time>
      </trkpt>
      <trkpt lat="42.973879" lon="0.211329">
        <ele>1353.2</ele>
        <time>2013-03-31T12:55:04Z</time>
      </trkpt>
      <trkpt lat="42.973916" lon="0.211449">
        <ele>1354.2</ele>
        <time>2013-03-31T12:55:14Z</time>
      </trkpt>
      <trkpt lat="42.973897" lon="0.211445">
        <ele>1354.2</ele>
        <time>2013-03-31T13:03:50Z</time>
      </trkpt>
      <trkpt lat="42.973987" lon="0.211472">
        <ele>1352.7</ele>
        <time>2013-03-31T13:08:37Z</time>
      </trkpt>
      <trkpt lat="42.974067" lon="0.211437">
        <ele>1349.8</ele>
        <time>2013-03-31T13:08:50Z</time>
      </trkpt>
      <trkpt lat="42.974164" lon="0.211420">
        <ele>1346.5</ele>
        <time>2013-03-31T13:09:04Z</time>
      </trkpt>
      <trkpt lat="42.974246" lon="0.211375">
        <ele>1343.6</ele>
        <time>2013-03-31T13:09:16Z</time>
      </trkpt>
      <trkpt lat="42.974314" lon="0.211437">
        <ele>1339.7</ele>
        <time>2013-03-31T13:09:32Z</time>
      </trkpt>
      <trkpt lat="42.974393" lon="0.211465">
        <ele>1335.9</ele>
        <time>2013-03-31T13:09:47Z</time>
      </trkpt>
      <trkpt lat="42.974489" lon="0.211449">
        <ele>1333.0</ele>
        <time>2013-03-31T13:09:57Z</time>
      </trkpt>
      <trkpt lat="42.974587" lon="0.211441">
        <ele>1329.6</ele>
        <time>2013-03-31T13:10:07Z</time>
      </trkpt>
      <trkpt lat="42.974697" lon="0.211445">
        <ele>1326.3</ele>
        <time>2013-03-31T13:10:17Z</time>
      </trkpt>
      <trkpt lat="42.974795" lon="0.211431">
        <ele>1323.9</ele>
        <time>2013-03-31T13:10:27Z</time>
      </trkpt>
      <trkpt lat="42.974876" lon="0.211387">
        <ele>1321.9</ele>
        <time>2013-03-31T13:10:38Z</time>
      </trkpt>
      <trkpt lat="42.974947" lon="0.211365">
        <ele>1318.1</ele>
        <time>2013-03-31T13:10:49Z</time>
      </trkpt>
      <trkpt lat="42.975028" lon="0.211319">
        <ele>1314.7</ele>
        <time>2013-03-31T13:11:00Z</time>
      </trkpt>
      <trkpt lat="42.975126" lon="0.211309">
        <ele>1311.9</ele>
        <time>2013-03-31T13:11:11Z</time>
      </trkpt>
      <trkpt lat="42.975218" lon="0.211304">
        <ele>1309.9</ele>
        <time>2013-03-31T13:11:19Z</time>
      </trkpt>
      <trkpt lat="42.975314" lon="0.211310">
        <ele>1309.0</ele>
        <time>2013-03-31T13:11:27Z</time>
      </trkpt>
      <trkpt lat="42.975409" lon="0.211316">
        <ele>1307.5</ele>
        <time>2013-03-31T13:11:35Z</time>
      </trkpt>
      <trkpt lat="42.975497" lon="0.211341">
        <ele>1306.6</ele>
        <time>2013-03-31T13:11:43Z</time>
      </trkpt>
      <trkpt lat="42.975590" lon="0.211366">
        <ele>1305.6</ele>
        <time>2013-03-31T13:11:50Z</time>
      </trkpt>
      <trkpt lat="42.975684" lon="0.211383">
        <ele>1305.1</ele>
        <time>2013-03-31T13:11:58Z</time>
      </trkpt>
      <trkpt lat="42.975781" lon="0.211421">
        <ele>1304.7</ele>
        <time>2013-03-31T13:12:06Z</time>
      </trkpt>
      <trkpt lat="42.975871" lon="0.211464">
        <ele>1304.2</ele>
        <time>2013-03-31T13:12:14Z</time>
      </trkpt>
      <trkpt lat="42.975970" lon="0.211506">
        <ele>1301.3</ele>
        <time>2013-03-31T13:12:22Z</time>
      </trkpt>
      <trkpt lat="42.976049" lon="0.211557">
        <ele>1299.4</ele>
        <time>2013-03-31T13:12:30Z</time>
      </trkpt>
      <trkpt lat="42.976142" lon="0.211595">
        <ele>1298.9</ele>
        <time>2013-03-31T13:12:38Z</time>
      </trkpt>
      <trkpt lat="42.976234" lon="0.211613">
        <ele>1297.9</ele>
        <time>2013-03-31T13:12:46Z</time>
      </trkpt>
      <trkpt lat="42.976319" lon="0.211668">
        <ele>1297.0</ele>
        <time>2013-03-31T13:12:54Z</time>
      </trkpt>
      <trkpt lat="42.976405" lon="0.211741">
        <ele>1295.0</ele>
        <time>2013-03-31T13:13:03Z</time>
      </trkpt>
      <trkpt lat="42.976498" lon="0.211767">
        <ele>1293.1</ele>
        <time>2013-03-31T13:13:34Z</time>
      </trkpt>
      <trkpt lat="42.976584" lon="0.211834">
        <ele>1292.6</ele>
        <time>2013-03-31T13:13:43Z</time>
      </trkpt>
      <trkpt lat="42.976664" lon="0.211903">
        <ele>1290.7</ele>
        <time>2013-03-31T13:13:53Z</time>
      </trkpt>
      <trkpt lat="42.976731" lon="0.211995">
        <ele>1289.8</ele>
        <time>2013-03-31T13:14:02Z</time>
      </trkpt>
      <trkpt lat="42.976784" lon="0.212101">
        <ele>1288.8</ele>
        <time>2013-03-31T13:14:11Z</time>
      </trkpt>
      <trkpt lat="42.976846" lon="0.212196">
        <ele>1286.4</ele>
        <time>2013-03-31T13:14:21Z</time>
      </trkpt>
      <trkpt lat="42.976929" lon="0.212274">
        <ele>1284.5</ele>
        <time>2013-03-31T13:14:32Z</time>
      </trkpt>
      <trkpt lat="42.977005" lon="0.212344">
        <ele>1282.5</ele>
        <time>2013-03-31T13:14:41Z</time>
      </trkpt>
      <trkpt lat="42.977085" lon="0.212418">
        <ele>1280.1</ele>
        <time>2013-03-31T13:14:53Z</time>
      </trkpt>
      <trkpt lat="42.977158" lon="0.212480">
        <ele>1278.2</ele>
        <time>2013-03-31T13:15:02Z</time>
      </trkpt>
      <trkpt lat="42.977224" lon="0.212564">
        <ele>1276.3</ele>
        <time>2013-03-31T13:15:12Z</time>
      </trkpt>
      <trkpt lat="42.977297" lon="0.212626">
        <ele>1272.0</ele>
        <time>2013-03-31T13:15:22Z</time>
      </trkpt>
      <trkpt lat="42.977371" lon="0.212692">
        <ele>1270.5</ele>
        <time>2013-03-31T13:15:33Z</time>
      </trkpt>
      <trkpt lat="42.977441" lon="0.212772">
        <ele>1267.6</ele>
        <time>2013-03-31T13:15:44Z</time>
      </trkpt>
      <trkpt lat="42.977522" lon="0.212838">
        <ele>1264.8</ele>
        <time>2013-03-31T13:15:54Z</time>
      </trkpt>
      <trkpt lat="42.977592" lon="0.212907">
        <ele>1262.3</ele>
        <time>2013-03-31T13:16:04Z</time>
      </trkpt>
      <trkpt lat="42.977670" lon="0.212979">
        <ele>1259.0</ele>
        <time>2013-03-31T13:16:15Z</time>
      </trkpt>
      <trkpt lat="42.977735" lon="0.213043">
        <ele>1256.6</ele>
        <time>2013-03-31T13:16:25Z</time>
      </trkpt>
      <trkpt lat="42.977806" lon="0.213123">
        <ele>1253.7</ele>
        <time>2013-03-31T13:16:35Z</time>
      </trkpt>
      <trkpt lat="42.977881" lon="0.213198">
        <ele>1250.3</ele>
        <time>2013-03-31T13:16:45Z</time>
      </trkpt>
      <trkpt lat="42.977957" lon="0.213274">
        <ele>1247.9</ele>
        <time>2013-03-31T13:16:55Z</time>
      </trkpt>
      <trkpt lat="42.978010" lon="0.213380">
        <ele>1245.0</ele>
        <time>2013-03-31T13:17:04Z</time>
      </trkpt>
      <trkpt lat="42.978071" lon="0.213480">
        <ele>1244.1</ele>
        <time>2013-03-31T13:17:16Z</time>
      </trkpt>
      <trkpt lat="42.978092" lon="0.213600">
        <ele>1242.2</ele>
        <time>2013-03-31T13:17:29Z</time>
      </trkpt>
      <trkpt lat="42.978212" lon="0.213647">
        <ele>1240.2</ele>
        <time>2013-03-31T13:18:02Z</time>
        <name>Les Cabanettes</name>
      </trkpt>
      <trkpt lat="42.978270" lon="0.213649">
        <ele>1239.3</ele>
        <time>2013-03-31T13:19:05Z</time>
      </trkpt>
      <trkpt lat="42.978364" lon="0.213707">
        <ele>1234.9</ele>
        <time>2013-03-31T13:19:15Z</time>
      </trkpt>
      <trkpt lat="42.978459" lon="0.213749">
        <ele>1234.0</ele>
        <time>2013-03-31T13:19:23Z</time>
      </trkpt>
      <trkpt lat="42.978550" lon="0.213758">
        <ele>1232.6</ele>
        <time>2013-03-31T13:19:31Z</time>
      </trkpt>
      <trkpt lat="42.978654" lon="0.213765">
        <ele>1230.1</ele>
        <time>2013-03-31T13:19:39Z</time>
      </trkpt>
      <trkpt lat="42.978757" lon="0.213770">
        <ele>1228.7</ele>
        <time>2013-03-31T13:19:48Z</time>
      </trkpt>
      <trkpt lat="42.978863" lon="0.213769">
        <ele>1225.3</ele>
        <time>2013-03-31T13:19:55Z</time>
      </trkpt>
      <trkpt lat="42.978972" lon="0.213766">
        <ele>1222.9</ele>
        <time>2013-03-31T13:20:05Z</time>
      </trkpt>
      <trkpt lat="42.979054" lon="0.213844">
        <ele>1220.5</ele>
        <time>2013-03-31T13:21:08Z</time>
      </trkpt>
      <trkpt lat="42.979112" lon="0.213914">
        <ele>1216.7</ele>
        <time>2013-03-31T13:21:24Z</time>
      </trkpt>
      <trkpt lat="42.979128" lon="0.214071">
        <ele>1213.8</ele>
        <time>2013-03-31T13:21:54Z</time>
      </trkpt>
      <trkpt lat="42.979192" lon="0.214239">
        <ele>1210.4</ele>
        <time>2013-03-31T13:22:27Z</time>
      </trkpt>
      <trkpt lat="42.979230" lon="0.214405">
        <ele>1207.1</ele>
        <time>2013-03-31T13:22:40Z</time>
      </trkpt>
      <trkpt lat="42.979240" lon="0.214546">
        <ele>1206.6</ele>
        <time>2013-03-31T13:22:52Z</time>
      </trkpt>
      <trkpt lat="42.979362" lon="0.214602">
        <ele>1203.7</ele>
        <time>2013-03-31T13:23:08Z</time>
      </trkpt>
      <trkpt lat="42.979469" lon="0.214645">
        <ele>1201.3</ele>
        <time>2013-03-31T13:23:19Z</time>
      </trkpt>
      <trkpt lat="42.979573" lon="0.214700">
        <ele>1199.9</ele>
        <time>2013-03-31T13:23:29Z</time>
      </trkpt>
      <trkpt lat="42.979669" lon="0.214758">
        <ele>1197.5</ele>
        <time>2013-03-31T13:23:39Z</time>
      </trkpt>
      <trkpt lat="42.979776" lon="0.214809">
        <ele>1194.1</ele>
        <time>2013-03-31T13:23:50Z</time>
      </trkpt>
      <trkpt lat="42.979880" lon="0.214846">
        <ele>1191.2</ele>
        <time>2013-03-31T13:23:59Z</time>
      </trkpt>
      <trkpt lat="42.980003" lon="0.214870">
        <ele>1187.8</ele>
        <time>2013-03-31T13:24:10Z</time>
      </trkpt>
      <trkpt lat="42.980100" lon="0.214908">
        <ele>1183.5</ele>
        <time>2013-03-31T13:24:21Z</time>
      </trkpt>
      <trkpt lat="42.980191" lon="0.214992">
        <ele>1178.7</ele>
        <time>2013-03-31T13:24:33Z</time>
      </trkpt>
      <trkpt lat="42.980240" lon="0.215122">
        <ele>1176.8</ele>
        <time>2013-03-31T13:24:44Z</time>
      </trkpt>
      <trkpt lat="42.980272" lon="0.215234">
        <ele>1175.3</ele>
        <time>2013-03-31T13:24:54Z</time>
      </trkpt>
      <trkpt lat="42.980330" lon="0.215349">
        <ele>1173.4</ele>
        <time>2013-03-31T13:25:03Z</time>
      </trkpt>
      <trkpt lat="42.980400" lon="0.215421">
        <ele>1171.5</ele>
        <time>2013-03-31T13:25:11Z</time>
      </trkpt>
      <trkpt lat="42.980492" lon="0.215464">
        <ele>1168.6</ele>
        <time>2013-03-31T13:25:19Z</time>
      </trkpt>
      <trkpt lat="42.980582" lon="0.215493">
        <ele>1167.7</ele>
        <time>2013-03-31T13:25:26Z</time>
      </trkpt>
      <trkpt lat="42.980678" lon="0.215543">
        <ele>1164.8</ele>
        <time>2013-03-31T13:25:35Z</time>
      </trkpt>
      <trkpt lat="42.980770" lon="0.215589">
        <ele>1162.8</ele>
        <time>2013-03-31T13:25:44Z</time>
      </trkpt>
      <trkpt lat="42.980856" lon="0.215640">
        <ele>1160.9</ele>
        <time>2013-03-31T13:25:53Z</time>
      </trkpt>
      <trkpt lat="42.980947" lon="0.215699">
        <ele>1159.0</ele>
        <time>2013-03-31T13:26:02Z</time>
      </trkpt>
      <trkpt lat="42.981028" lon="0.215770">
        <ele>1156.6</ele>
        <time>2013-03-31T13:26:11Z</time>
      </trkpt>
      <trkpt lat="42.981111" lon="0.215825">
        <ele>1153.2</ele>
        <time>2013-03-31T13:26:22Z</time>
      </trkpt>
      <trkpt lat="42.981203" lon="0.215866">
        <ele>1149.9</ele>
        <time>2013-03-31T13:26:31Z</time>
      </trkpt>
      <trkpt lat="42.981278" lon="0.215939">
        <ele>1148.9</ele>
        <time>2013-03-31T13:26:44Z</time>
      </trkpt>
      <trkpt lat="42.981365" lon="0.215981">
        <ele>1145.6</ele>
        <time>2013-03-31T13:26:52Z</time>
      </trkpt>
      <trkpt lat="42.981470" lon="0.216035">
        <ele>1143.1</ele>
        <time>2013-03-31T13:27:00Z</time>
      </trkpt>
      <trkpt lat="42.981562" lon="0.216069">
        <ele>1141.2</ele>
        <time>2013-03-31T13:27:07Z</time>
      </trkpt>
      <trkpt lat="42.981663" lon="0.216102">
        <ele>1138.3</ele>
        <time>2013-03-31T13:27:15Z</time>
      </trkpt>
      <trkpt lat="42.981760" lon="0.216130">
        <ele>1136.4</ele>
        <time>2013-03-31T13:27:23Z</time>
      </trkpt>
      <trkpt lat="42.981858" lon="0.216165">
        <ele>1135.0</ele>
        <time>2013-03-31T13:27:31Z</time>
      </trkpt>
      <trkpt lat="42.981959" lon="0.216183">
        <ele>1134.0</ele>
        <time>2013-03-31T13:27:39Z</time>
      </trkpt>
      <trkpt lat="42.982058" lon="0.216212">
        <ele>1131.6</ele>
        <time>2013-03-31T13:27:47Z</time>
      </trkpt>
      <trkpt lat="42.982158" lon="0.216213">
        <ele>1130.2</ele>
        <time>2013-03-31T13:27:54Z</time>
      </trkpt>
      <trkpt lat="42.982255" lon="0.216188">
        <ele>1129.7</ele>
        <time>2013-03-31T13:28:02Z</time>
      </trkpt>
      <trkpt lat="42.982345" lon="0.216154">
        <ele>1129.2</ele>
        <time>2013-03-31T13:28:11Z</time>
      </trkpt>
      <trkpt lat="42.982450" lon="0.216127">
        <ele>1125.4</ele>
        <time>2013-03-31T13:28:19Z</time>
      </trkpt>
      <trkpt lat="42.982555" lon="0.216127">
        <ele>1123.0</ele>
        <time>2013-03-31T13:28:27Z</time>
      </trkpt>
      <trkpt lat="42.982637" lon="0.216106">
        <ele>1119.1</ele>
        <time>2013-03-31T13:28:36Z</time>
      </trkpt>
      <trkpt lat="42.982731" lon="0.216075">
        <ele>1115.8</ele>
        <time>2013-03-31T13:28:44Z</time>
      </trkpt>
      <trkpt lat="42.982829" lon="0.216055">
        <ele>1114.8</ele>
        <time>2013-03-31T13:28:52Z</time>
      </trkpt>
      <trkpt lat="42.982920" lon="0.216031">
        <ele>1114.3</ele>
        <time>2013-03-31T13:29:01Z</time>
      </trkpt>
      <trkpt lat="42.982936" lon="0.216074">
        <ele>1115.8</ele>
        <time>2013-03-31T13:32:50Z</time>
      </trkpt>
      <trkpt lat="42.982965" lon="0.216120">
        <ele>1115.3</ele>
        <time>2013-03-31T13:33:06Z</time>
      </trkpt>
      <trkpt lat="42.982997" lon="0.216256">
        <ele>1115.8</ele>
        <time>2013-03-31T13:33:16Z</time>
      </trkpt>
      <trkpt lat="42.983019" lon="0.216394">
        <ele>1114.3</ele>
        <time>2013-03-31T13:33:25Z</time>
      </trkpt>
      <trkpt lat="42.983035" lon="0.216536">
        <ele>1113.3</ele>
        <time>2013-03-31T13:33:34Z</time>
      </trkpt>
      <trkpt lat="42.983040" lon="0.216677">
        <ele>1112.4</ele>
        <time>2013-03-31T13:33:43Z</time>
      </trkpt>
      <trkpt lat="42.983037" lon="0.216827">
        <ele>1110.0</ele>
        <time>2013-03-31T13:33:52Z</time>
      </trkpt>
      <trkpt lat="42.983000" lon="0.216961">
        <ele>1109.0</ele>
        <time>2013-03-31T13:34:02Z</time>
      </trkpt>
      <trkpt lat="42.982982" lon="0.217131">
        <ele>1106.1</ele>
        <time>2013-03-31T13:34:13Z</time>
      </trkpt>
      <trkpt lat="42.982958" lon="0.217285">
        <ele>1104.2</ele>
        <time>2013-03-31T13:34:23Z</time>
      </trkpt>
      <trkpt lat="42.982929" lon="0.217418">
        <ele>1102.3</ele>
        <time>2013-03-31T13:34:32Z</time>
      </trkpt>
      <trkpt lat="42.982906" lon="0.217547">
        <ele>1100.8</ele>
        <time>2013-03-31T13:34:40Z</time>
      </trkpt>
      <trkpt lat="42.982887" lon="0.217677">
        <ele>1098.9</ele>
        <time>2013-03-31T13:34:48Z</time>
      </trkpt>
      <trkpt lat="42.982870" lon="0.217792">
        <ele>1095.6</ele>
        <time>2013-03-31T13:35:00Z</time>
      </trkpt>
      <trkpt lat="42.982842" lon="0.217930">
        <ele>1092.2</ele>
        <time>2013-03-31T13:35:10Z</time>
      </trkpt>
      <trkpt lat="42.982807" lon="0.218054">
        <ele>1089.8</ele>
        <time>2013-03-31T13:35:20Z</time>
      </trkpt>
      <trkpt lat="42.982793" lon="0.218204">
        <ele>1085.5</ele>
        <time>2013-03-31T13:35:30Z</time>
      </trkpt>
      <trkpt lat="42.982763" lon="0.218289">
        <ele>1083.5</ele>
        <time>2013-03-31T13:36:09Z</time>
      </trkpt>
      <trkpt lat="42.982742" lon="0.218416">
        <ele>1078.7</ele>
        <time>2013-03-31T13:36:37Z</time>
      </trkpt>
      <trkpt lat="42.982640" lon="0.218545">
        <ele>1074.9</ele>
        <time>2013-03-31T13:36:58Z</time>
      </trkpt>
      <trkpt lat="42.982498" lon="0.218642">
        <ele>1070.6</ele>
        <time>2013-03-31T13:37:18Z</time>
      </trkpt>
      <trkpt lat="42.982333" lon="0.218767">
        <ele>1063.8</ele>
        <time>2013-03-31T13:38:22Z</time>
      </trkpt>
      <trkpt lat="42.982348" lon="0.218910">
        <ele>1057.1</ele>
        <time>2013-03-31T13:38:48Z</time>
      </trkpt>
      <trkpt lat="42.982145" lon="0.218944">
        <ele>1050.4</ele>
        <time>2013-03-31T13:41:09Z</time>
      </trkpt>
      <trkpt lat="42.982093" lon="0.219102">
        <ele>1041.7</ele>
        <time>2013-03-31T13:42:41Z</time>
      </trkpt>
      <trkpt lat="42.982126" lon="0.219306">
        <ele>1035.0</ele>
        <time>2013-03-31T13:43:07Z</time>
      </trkpt>
      <trkpt lat="42.982272" lon="0.219435">
        <ele>1029.7</ele>
        <time>2013-03-31T13:43:32Z</time>
      </trkpt>
      <trkpt lat="42.982132" lon="0.219600">
        <ele>1017.7</ele>
        <time>2013-03-31T13:44:13Z</time>
      </trkpt>
      <trkpt lat="42.982239" lon="0.219664">
        <ele>1014.3</ele>
        <time>2013-03-31T13:44:36Z</time>
      </trkpt>
      <trkpt lat="42.982362" lon="0.219866">
        <ele>1008.6</ele>
        <time>2013-03-31T13:44:56Z</time>
      </trkpt>
      <trkpt lat="42.982378" lon="0.220041">
        <ele>1003.8</ele>
        <time>2013-03-31T13:45:11Z</time>
      </trkpt>
      <trkpt lat="42.982477" lon="0.220186">
        <ele>1000.4</ele>
        <time>2013-03-31T13:45:59Z</time>
      </trkpt>
      <trkpt lat="42.982404" lon="0.220462">
        <ele>993.7</ele>
        <time>2013-03-31T13:46:22Z</time>
      </trkpt>
      <trkpt lat="42.982398" lon="0.220700">
        <ele>986.0</ele>
        <time>2013-03-31T13:48:41Z</time>
      </trkpt>
      <trkpt lat="42.982302" lon="0.220826">
        <ele>977.3</ele>
        <time>2013-03-31T13:49:09Z</time>
      </trkpt>
      <trkpt lat="42.982067" lon="0.220754">
        <ele>970.1</ele>
        <time>2013-03-31T13:49:43Z</time>
      </trkpt>
      <trkpt lat="42.981938" lon="0.220777">
        <ele>962.9</ele>
        <time>2013-03-31T13:50:11Z</time>
      </trkpt>
      <trkpt lat="42.981873" lon="0.220851">
        <ele>957.1</ele>
        <time>2013-03-31T13:50:31Z</time>
      </trkpt>
      <trkpt lat="42.981728" lon="0.221026">
        <ele>949.4</ele>
        <time>2013-03-31T13:51:05Z</time>
      </trkpt>
      <trkpt lat="42.981698" lon="0.221087">
        <ele>947.0</ele>
        <time>2013-03-31T13:52:13Z</time>
      </trkpt>
      <trkpt lat="42.981566" lon="0.221169">
        <ele>941.8</ele>
        <time>2013-03-31T13:52:41Z</time>
      </trkpt>
      <trkpt lat="42.981478" lon="0.221258">
        <ele>938.9</ele>
        <time>2013-03-31T13:53:11Z</time>
      </trkpt>
      <trkpt lat="42.981394" lon="0.221486">
        <ele>933.1</ele>
        <time>2013-03-31T13:53:31Z</time>
      </trkpt>
      <trkpt lat="42.981256" lon="0.221484">
        <ele>932.6</ele>
        <time>2013-03-31T13:53:45Z</time>
      </trkpt>
      <trkpt lat="42.981152" lon="0.221596">
        <ele>928.8</ele>
        <time>2013-03-31T13:53:59Z</time>
      </trkpt>
      <trkpt lat="42.981161" lon="0.221745">
        <ele>923.5</ele>
        <time>2013-03-31T13:54:10Z</time>
      </trkpt>
      <trkpt lat="42.981130" lon="0.221892">
        <ele>924.0</ele>
        <time>2013-03-31T13:54:22Z</time>
        <name>Ruisseau d_Escaret</name>
      </trkpt>
      <trkpt lat="42.981194" lon="0.221872">
        <ele>924.5</ele>
        <time>2013-03-31T13:58:58Z</time>
      </trkpt>
      <trkpt lat="42.981338" lon="0.221866">
        <ele>924.5</ele>
        <time>2013-03-31T13:59:10Z</time>
      </trkpt>
      <trkpt lat="42.981477" lon="0.221904">
        <ele>924.9</ele>
        <time>2013-03-31T13:59:24Z</time>
      </trkpt>
      <trkpt lat="42.981627" lon="0.222028">
        <ele>924.0</ele>
        <time>2013-03-31T13:59:37Z</time>
      </trkpt>
      <trkpt lat="42.981661" lon="0.222338">
        <ele>930.2</ele>
        <time>2013-03-31T14:00:05Z</time>
      </trkpt>
      <trkpt lat="42.981791" lon="0.222519">
        <ele>933.1</ele>
        <time>2013-03-31T14:00:28Z</time>
      </trkpt>
      <trkpt lat="42.981803" lon="0.222701">
        <ele>936.9</ele>
        <time>2013-03-31T14:00:47Z</time>
      </trkpt>
      <trkpt lat="42.981713" lon="0.222936">
        <ele>941.8</ele>
        <time>2013-03-31T14:01:23Z</time>
      </trkpt>
      <trkpt lat="42.981783" lon="0.223160">
        <ele>946.1</ele>
        <time>2013-03-31T14:01:44Z</time>
      </trkpt>
      <trkpt lat="42.981859" lon="0.223382">
        <ele>944.6</ele>
        <time>2013-03-31T14:02:02Z</time>
      </trkpt>
      <trkpt lat="42.981919" lon="0.223590">
        <ele>940.8</ele>
        <time>2013-03-31T14:02:18Z</time>
      </trkpt>
      <trkpt lat="42.981936" lon="0.223711">
        <ele>940.8</ele>
        <time>2013-03-31T14:03:49Z</time>
      </trkpt>
      <trkpt lat="42.981972" lon="0.223844">
        <ele>942.2</ele>
        <time>2013-03-31T14:04:00Z</time>
      </trkpt>
      <trkpt lat="42.982016" lon="0.223940">
        <ele>944.2</ele>
        <time>2013-03-31T14:04:13Z</time>
      </trkpt>
      <trkpt lat="42.982092" lon="0.224023">
        <ele>944.6</ele>
        <time>2013-03-31T14:04:26Z</time>
      </trkpt>
      <trkpt lat="42.982163" lon="0.224104">
        <ele>947.0</ele>
        <time>2013-03-31T14:04:37Z</time>
      </trkpt>
      <trkpt lat="42.982248" lon="0.224217">
        <ele>949.0</ele>
        <time>2013-03-31T14:04:49Z</time>
      </trkpt>
      <trkpt lat="42.982319" lon="0.224321">
        <ele>950.4</ele>
        <time>2013-03-31T14:05:01Z</time>
      </trkpt>
      <trkpt lat="42.982425" lon="0.224350">
        <ele>950.4</ele>
        <time>2013-03-31T14:05:11Z</time>
      </trkpt>
      <trkpt lat="42.982531" lon="0.224350">
        <ele>947.5</ele>
        <time>2013-03-31T14:05:31Z</time>
      </trkpt>
      <trkpt lat="42.982648" lon="0.224329">
        <ele>948.5</ele>
        <time>2013-03-31T14:06:13Z</time>
      </trkpt>
      <trkpt lat="42.982732" lon="0.224292">
        <ele>948.5</ele>
        <time>2013-03-31T14:06:21Z</time>
      </trkpt>
      <trkpt lat="42.982830" lon="0.224287">
        <ele>948.0</ele>
        <time>2013-03-31T14:06:30Z</time>
      </trkpt>
      <trkpt lat="42.982924" lon="0.224283">
        <ele>946.6</ele>
        <time>2013-03-31T14:06:38Z</time>
      </trkpt>
      <trkpt lat="42.983018" lon="0.224258">
        <ele>947.5</ele>
        <time>2013-03-31T14:06:46Z</time>
      </trkpt>
      <trkpt lat="42.983113" lon="0.224244">
        <ele>946.6</ele>
        <time>2013-03-31T14:06:55Z</time>
      </trkpt>
      <trkpt lat="42.983215" lon="0.224215">
        <ele>946.1</ele>
        <time>2013-03-31T14:07:04Z</time>
      </trkpt>
      <trkpt lat="42.983306" lon="0.224204">
        <ele>945.1</ele>
        <time>2013-03-31T14:07:13Z</time>
      </trkpt>
      <trkpt lat="42.983418" lon="0.224205">
        <ele>946.6</ele>
        <time>2013-03-31T14:07:22Z</time>
      </trkpt>
      <trkpt lat="42.983537" lon="0.224192">
        <ele>945.6</ele>
        <time>2013-03-31T14:07:33Z</time>
      </trkpt>
      <trkpt lat="42.983625" lon="0.224187">
        <ele>946.1</ele>
        <time>2013-03-31T14:07:42Z</time>
      </trkpt>
      <trkpt lat="42.983727" lon="0.224173">
        <ele>945.6</ele>
        <time>2013-03-31T14:08:06Z</time>
      </trkpt>
      <trkpt lat="42.983901" lon="0.224193">
        <ele>944.6</ele>
        <time>2013-03-31T14:08:39Z</time>
      </trkpt>
      <trkpt lat="42.984071" lon="0.224230">
        <ele>941.3</ele>
        <time>2013-03-31T14:08:58Z</time>
      </trkpt>
      <trkpt lat="42.984239" lon="0.224161">
        <ele>938.9</ele>
        <time>2013-03-31T14:09:14Z</time>
      </trkpt>
      <trkpt lat="42.984390" lon="0.224112">
        <ele>936.9</ele>
        <time>2013-03-31T14:09:29Z</time>
      </trkpt>
      <trkpt lat="42.984553" lon="0.224089">
        <ele>936.5</ele>
        <time>2013-03-31T14:09:45Z</time>
      </trkpt>
      <trkpt lat="42.984689" lon="0.224081">
        <ele>936.5</ele>
        <time>2013-03-31T14:09:59Z</time>
      </trkpt>
      <trkpt lat="42.984827" lon="0.224079">
        <ele>936.0</ele>
        <time>2013-03-31T14:10:11Z</time>
      </trkpt>
      <trkpt lat="42.984963" lon="0.224086">
        <ele>934.1</ele>
        <time>2013-03-31T14:10:25Z</time>
      </trkpt>
      <trkpt lat="42.985119" lon="0.224051">
        <ele>930.7</ele>
        <time>2013-03-31T14:10:49Z</time>
      </trkpt>
      <trkpt lat="42.985289" lon="0.224080">
        <ele>927.8</ele>
        <time>2013-03-31T14:11:59Z</time>
      </trkpt>
      <trkpt lat="42.985467" lon="0.224058">
        <ele>922.5</ele>
        <time>2013-03-31T14:12:18Z</time>
      </trkpt>
      <trkpt lat="42.985579" lon="0.224091">
        <ele>919.2</ele>
        <time>2013-03-31T14:12:30Z</time>
      </trkpt>
      <trkpt lat="42.985651" lon="0.224211">
        <ele>916.8</ele>
        <time>2013-03-31T14:12:39Z</time>
      </trkpt>
      <trkpt lat="42.985640" lon="0.224339">
        <ele>913.9</ele>
        <time>2013-03-31T14:12:52Z</time>
      </trkpt>
      <trkpt lat="42.985625" lon="0.224475">
        <ele>913.4</ele>
        <time>2013-03-31T14:13:03Z</time>
      </trkpt>
      <trkpt lat="42.985592" lon="0.224602">
        <ele>910.5</ele>
        <time>2013-03-31T14:13:12Z</time>
      </trkpt>
      <trkpt lat="42.985483" lon="0.224725">
        <ele>908.1</ele>
        <time>2013-03-31T14:13:23Z</time>
      </trkpt>
      <trkpt lat="42.985279" lon="0.224862">
        <ele>903.3</ele>
        <time>2013-03-31T14:13:38Z</time>
      </trkpt>
      <trkpt lat="42.985100" lon="0.225013">
        <ele>899.0</ele>
        <time>2013-03-31T14:13:58Z</time>
      </trkpt>
      <trkpt lat="42.984929" lon="0.225149">
        <ele>893.7</ele>
        <time>2013-03-31T14:14:19Z</time>
      </trkpt>
      <trkpt lat="42.984799" lon="0.225265">
        <ele>890.8</ele>
        <time>2013-03-31T14:14:32Z</time>
      </trkpt>
      <trkpt lat="42.984715" lon="0.225343">
        <ele>888.4</ele>
        <time>2013-03-31T14:14:41Z</time>
      </trkpt>
      <trkpt lat="42.984620" lon="0.225436">
        <ele>886.5</ele>
        <time>2013-03-31T14:14:51Z</time>
      </trkpt>
      <trkpt lat="42.984525" lon="0.225559">
        <ele>884.5</ele>
        <time>2013-03-31T14:15:01Z</time>
      </trkpt>
      <trkpt lat="42.984471" lon="0.225672">
        <ele>883.6</ele>
        <time>2013-03-31T14:15:10Z</time>
      </trkpt>
      <trkpt lat="42.984448" lon="0.225723">
        <ele>881.7</ele>
        <time>2013-03-31T14:17:54Z</time>
      </trkpt>
      <trkpt lat="42.984466" lon="0.225830">
        <ele>880.7</ele>
        <time>2013-03-31T14:20:06Z</time>
      </trkpt>
      <trkpt lat="42.984508" lon="0.225950">
        <ele>877.8</ele>
        <time>2013-03-31T14:20:27Z</time>
      </trkpt>
      <trkpt lat="42.984562" lon="0.226072">
        <ele>874.9</ele>
        <time>2013-03-31T14:20:33Z</time>
      </trkpt>
      <trkpt lat="42.984471" lon="0.226203">
        <ele>871.6</ele>
        <time>2013-03-31T14:20:42Z</time>
      </trkpt>
      <trkpt lat="42.984405" lon="0.226214">
        <ele>871.6</ele>
        <time>2013-03-31T14:20:59Z</time>
      </trkpt>
    </trkseg>
  </trk>
</gpx>

